<?xml version="1.0" encoding="UTF-8" standalone="no" ?>
<gpx xmlns="http://www.topografix.com/GPX/1/1" xmlns:xsi="http://www.w3.org/2001/XMLSchema-instance" xsi:schemaLocation="http://www.topografix.com/GPX/1/1 http://www.topografix.com/GPX/1/1/gpx.xsd" version="1.1" creator="VisuGPX - https://www.visugpx.com">
  <metadata>
    <name>Descente Hauteluce </name>
    <desc><![CDATA[Départ office de tourisme les saisies ]]></desc>
  </metadata>
  <trk>
    <name><![CDATA[hauteluce descente11]]></name>
    <desc><![CDATA[?]]></desc>
    <extensions>
      <line xmlns="http://www.topografix.com/GPX/gpx_style/0/2">
        <color>0000FF</color>
        <width>4</width>
      </line>
    </extensions>
    <trkseg>
      <trkpt lat="45.752" lon="6.54774">
        <ele>1565.8</ele>
        <time>2024-01-08T13:50:07Z</time>
      </trkpt>
      <trkpt lat="45.75195" lon="6.54775">
        <ele>1568.6</ele>
        <time>2024-01-08T13:50:22Z</time>
      </trkpt>
      <trkpt lat="45.7519" lon="6.54777">
        <ele>1568.7</ele>
        <time>2024-01-08T13:50:28Z</time>
      </trkpt>
      <trkpt lat="45.75185" lon="6.54777">
        <ele>1568.2</ele>
        <time>2024-01-08T13:50:35Z</time>
      </trkpt>
      <trkpt lat="45.75181" lon="6.54779">
        <ele>1567.4</ele>
        <time>2024-01-08T13:50:48Z</time>
      </trkpt>
      <trkpt lat="45.75176" lon="6.54781">
        <ele>1566.9</ele>
        <time>2024-01-08T13:50:53Z</time>
      </trkpt>
      <trkpt lat="45.75171" lon="6.54783">
        <ele>1565.7</ele>
        <time>2024-01-08T13:50:58Z</time>
      </trkpt>
      <trkpt lat="45.75167" lon="6.54785">
        <ele>1564.7</ele>
        <time>2024-01-08T13:51:03Z</time>
      </trkpt>
      <trkpt lat="45.75162" lon="6.54786">
        <ele>1564.4</ele>
        <time>2024-01-08T13:51:09Z</time>
      </trkpt>
      <trkpt lat="45.75157" lon="6.54788">
        <ele>1564.3</ele>
        <time>2024-01-08T13:51:15Z</time>
      </trkpt>
      <trkpt lat="45.75152" lon="6.54792">
        <ele>1563.2</ele>
        <time>2024-01-08T13:51:21Z</time>
      </trkpt>
      <trkpt lat="45.75148" lon="6.54795">
        <ele>1562.7</ele>
        <time>2024-01-08T13:51:26Z</time>
      </trkpt>
      <trkpt lat="45.75144" lon="6.54798">
        <ele>1561.7</ele>
        <time>2024-01-08T13:51:31Z</time>
      </trkpt>
      <trkpt lat="45.7514" lon="6.54801">
        <ele>1560.2</ele>
        <time>2024-01-08T13:51:36Z</time>
      </trkpt>
      <trkpt lat="45.75135" lon="6.54803">
        <ele>1559</ele>
        <time>2024-01-08T13:51:41Z</time>
      </trkpt>
      <trkpt lat="45.7513" lon="6.54805">
        <ele>1558.2</ele>
        <time>2024-01-08T13:51:46Z</time>
      </trkpt>
      <trkpt lat="45.75126" lon="6.54808">
        <ele>1557.3</ele>
        <time>2024-01-08T13:51:51Z</time>
      </trkpt>
      <trkpt lat="45.75121" lon="6.54809">
        <ele>1556.6</ele>
        <time>2024-01-08T13:51:56Z</time>
      </trkpt>
      <trkpt lat="45.75116" lon="6.54808">
        <ele>1557.9</ele>
        <time>2024-01-08T13:52:01Z</time>
      </trkpt>
      <trkpt lat="45.75112" lon="6.5481">
        <ele>1558.4</ele>
        <time>2024-01-08T13:52:06Z</time>
      </trkpt>
      <trkpt lat="45.75107" lon="6.54812">
        <ele>1558.8</ele>
        <time>2024-01-08T13:52:11Z</time>
      </trkpt>
      <trkpt lat="45.75102" lon="6.54815">
        <ele>1558.6</ele>
        <time>2024-01-08T13:52:16Z</time>
      </trkpt>
      <trkpt lat="45.75098" lon="6.54817">
        <ele>1558.2</ele>
        <time>2024-01-08T13:52:21Z</time>
      </trkpt>
      <trkpt lat="45.75093" lon="6.54818">
        <ele>1558.6</ele>
        <time>2024-01-08T13:52:26Z</time>
      </trkpt>
      <trkpt lat="45.75089" lon="6.5482">
        <ele>1558.4</ele>
        <time>2024-01-08T13:52:31Z</time>
      </trkpt>
      <trkpt lat="45.75085" lon="6.54823">
        <ele>1557.9</ele>
        <time>2024-01-08T13:52:36Z</time>
      </trkpt>
      <trkpt lat="45.7508" lon="6.54825">
        <ele>1556.8</ele>
        <time>2024-01-08T13:52:41Z</time>
      </trkpt>
      <trkpt lat="45.75076" lon="6.54827">
        <ele>1555.8</ele>
        <time>2024-01-08T13:52:46Z</time>
      </trkpt>
      <trkpt lat="45.75072" lon="6.5483">
        <ele>1555.2</ele>
        <time>2024-01-08T13:52:51Z</time>
      </trkpt>
      <trkpt lat="45.75068" lon="6.54834">
        <ele>1555.3</ele>
        <time>2024-01-08T13:52:56Z</time>
      </trkpt>
      <trkpt lat="45.75063" lon="6.54837">
        <ele>1555.1</ele>
        <time>2024-01-08T13:53:01Z</time>
      </trkpt>
      <trkpt lat="45.75058" lon="6.54835">
        <ele>1556.1</ele>
        <time>2024-01-08T13:53:08Z</time>
      </trkpt>
      <trkpt lat="45.75053" lon="6.54835">
        <ele>1557.5</ele>
        <time>2024-01-08T13:53:14Z</time>
      </trkpt>
      <trkpt lat="45.75048" lon="6.54836">
        <ele>1558.8</ele>
        <time>2024-01-08T13:53:20Z</time>
      </trkpt>
      <trkpt lat="45.75043" lon="6.54837">
        <ele>1559.3</ele>
        <time>2024-01-08T13:53:26Z</time>
      </trkpt>
      <trkpt lat="45.75038" lon="6.54839">
        <ele>1559.1</ele>
        <time>2024-01-08T13:53:32Z</time>
      </trkpt>
      <trkpt lat="45.75033" lon="6.54842">
        <ele>1558.2</ele>
        <time>2024-01-08T13:53:38Z</time>
      </trkpt>
      <trkpt lat="45.75028" lon="6.54844">
        <ele>1557.7</ele>
        <time>2024-01-08T13:53:44Z</time>
      </trkpt>
      <trkpt lat="45.75024" lon="6.54847">
        <ele>1557.7</ele>
        <time>2024-01-08T13:53:49Z</time>
      </trkpt>
      <trkpt lat="45.75019" lon="6.54849">
        <ele>1557.6</ele>
        <time>2024-01-08T13:53:54Z</time>
      </trkpt>
      <trkpt lat="45.75015" lon="6.54851">
        <ele>1557.9</ele>
        <time>2024-01-08T13:53:59Z</time>
      </trkpt>
      <trkpt lat="45.7501" lon="6.54854">
        <ele>1558.2</ele>
        <time>2024-01-08T13:54:04Z</time>
      </trkpt>
      <trkpt lat="45.75005" lon="6.54856">
        <ele>1558.5</ele>
        <time>2024-01-08T13:54:10Z</time>
      </trkpt>
      <trkpt lat="45.75001" lon="6.54859">
        <ele>1558.5</ele>
        <time>2024-01-08T13:54:15Z</time>
      </trkpt>
      <trkpt lat="45.74997" lon="6.54863">
        <ele>1558.4</ele>
        <time>2024-01-08T13:54:20Z</time>
      </trkpt>
      <trkpt lat="45.74992" lon="6.54866">
        <ele>1558</ele>
        <time>2024-01-08T13:54:26Z</time>
      </trkpt>
      <trkpt lat="45.74989" lon="6.54871">
        <ele>1557.9</ele>
        <time>2024-01-08T13:54:32Z</time>
      </trkpt>
      <trkpt lat="45.74985" lon="6.54875">
        <ele>1557.4</ele>
        <time>2024-01-08T13:54:38Z</time>
      </trkpt>
      <trkpt lat="45.7498" lon="6.54878">
        <ele>1555.8</ele>
        <time>2024-01-08T13:54:44Z</time>
      </trkpt>
      <trkpt lat="45.74976" lon="6.54882">
        <ele>1554.2</ele>
        <time>2024-01-08T13:54:50Z</time>
      </trkpt>
      <trkpt lat="45.74971" lon="6.54881">
        <ele>1552.3</ele>
        <time>2024-01-08T13:55:02Z</time>
      </trkpt>
      <trkpt lat="45.74967" lon="6.54884">
        <ele>1552.4</ele>
        <time>2024-01-08T13:55:08Z</time>
      </trkpt>
      <trkpt lat="45.74962" lon="6.54887">
        <ele>1551.7</ele>
        <time>2024-01-08T13:55:14Z</time>
      </trkpt>
      <trkpt lat="45.74957" lon="6.5489">
        <ele>1550.4</ele>
        <time>2024-01-08T13:55:20Z</time>
      </trkpt>
      <trkpt lat="45.74952" lon="6.54893">
        <ele>1549.2</ele>
        <time>2024-01-08T13:55:26Z</time>
      </trkpt>
      <trkpt lat="45.74947" lon="6.54895">
        <ele>1548.5</ele>
        <time>2024-01-08T13:55:32Z</time>
      </trkpt>
      <trkpt lat="45.74943" lon="6.54898">
        <ele>1548.2</ele>
        <time>2024-01-08T13:55:37Z</time>
      </trkpt>
      <trkpt lat="45.74939" lon="6.54902">
        <ele>1548.2</ele>
        <time>2024-01-08T13:55:42Z</time>
      </trkpt>
      <trkpt lat="45.74935" lon="6.54905">
        <ele>1547.7</ele>
        <time>2024-01-08T13:55:47Z</time>
      </trkpt>
      <trkpt lat="45.74931" lon="6.54909">
        <ele>1547.3</ele>
        <time>2024-01-08T13:55:52Z</time>
      </trkpt>
      <trkpt lat="45.74927" lon="6.54912">
        <ele>1546.9</ele>
        <time>2024-01-08T13:55:57Z</time>
      </trkpt>
      <trkpt lat="45.74922" lon="6.54914">
        <ele>1546.9</ele>
        <time>2024-01-08T13:56:02Z</time>
      </trkpt>
      <trkpt lat="45.74917" lon="6.54916">
        <ele>1546.7</ele>
        <time>2024-01-08T13:56:07Z</time>
      </trkpt>
      <trkpt lat="45.74912" lon="6.54917">
        <ele>1546.9</ele>
        <time>2024-01-08T13:56:13Z</time>
      </trkpt>
      <trkpt lat="45.74907" lon="6.54917">
        <ele>1547.6</ele>
        <time>2024-01-08T13:56:19Z</time>
      </trkpt>
      <trkpt lat="45.74902" lon="6.54919">
        <ele>1548.5</ele>
        <time>2024-01-08T13:56:24Z</time>
      </trkpt>
      <trkpt lat="45.74897" lon="6.54921">
        <ele>1549</ele>
        <time>2024-01-08T13:56:29Z</time>
      </trkpt>
      <trkpt lat="45.74893" lon="6.54923">
        <ele>1549</ele>
        <time>2024-01-08T13:56:34Z</time>
      </trkpt>
      <trkpt lat="45.74888" lon="6.54925">
        <ele>1548.8</ele>
        <time>2024-01-08T13:56:39Z</time>
      </trkpt>
      <trkpt lat="45.74884" lon="6.54928">
        <ele>1548.8</ele>
        <time>2024-01-08T13:56:44Z</time>
      </trkpt>
      <trkpt lat="45.74879" lon="6.5493">
        <ele>1548.6</ele>
        <time>2024-01-08T13:56:49Z</time>
      </trkpt>
      <trkpt lat="45.74875" lon="6.54932">
        <ele>1548.2</ele>
        <time>2024-01-08T13:56:54Z</time>
      </trkpt>
      <trkpt lat="45.74871" lon="6.54936">
        <ele>1545.7</ele>
        <time>2024-01-08T13:57:55Z</time>
      </trkpt>
      <trkpt lat="45.74866" lon="6.54937">
        <ele>1545.3</ele>
        <time>2024-01-08T13:58:03Z</time>
      </trkpt>
      <trkpt lat="45.74861" lon="6.54938">
        <ele>1545.2</ele>
        <time>2024-01-08T13:58:08Z</time>
      </trkpt>
      <trkpt lat="45.74856" lon="6.54939">
        <ele>1544.5</ele>
        <time>2024-01-08T13:58:14Z</time>
      </trkpt>
      <trkpt lat="45.74851" lon="6.54938">
        <ele>1544.1</ele>
        <time>2024-01-08T13:58:20Z</time>
      </trkpt>
      <trkpt lat="45.74847" lon="6.54934">
        <ele>1543.2</ele>
        <time>2024-01-08T13:58:26Z</time>
      </trkpt>
      <trkpt lat="45.74842" lon="6.54933">
        <ele>1543</ele>
        <time>2024-01-08T13:58:32Z</time>
      </trkpt>
      <trkpt lat="45.74837" lon="6.54933">
        <ele>1543.2</ele>
        <time>2024-01-08T13:58:38Z</time>
      </trkpt>
      <trkpt lat="45.74832" lon="6.54934">
        <ele>1543.7</ele>
        <time>2024-01-08T13:58:43Z</time>
      </trkpt>
      <trkpt lat="45.74828" lon="6.54937">
        <ele>1545.2</ele>
        <time>2024-01-08T13:58:49Z</time>
      </trkpt>
      <trkpt lat="45.74823" lon="6.54938">
        <ele>1545.9</ele>
        <time>2024-01-08T13:58:54Z</time>
      </trkpt>
      <trkpt lat="45.74818" lon="6.54938">
        <ele>1546.2</ele>
        <time>2024-01-08T13:58:59Z</time>
      </trkpt>
      <trkpt lat="45.74813" lon="6.54938">
        <ele>1546.4</ele>
        <time>2024-01-08T13:59:04Z</time>
      </trkpt>
      <trkpt lat="45.74808" lon="6.54938">
        <ele>1546.1</ele>
        <time>2024-01-08T13:59:09Z</time>
      </trkpt>
      <trkpt lat="45.74804" lon="6.54937">
        <ele>1545.3</ele>
        <time>2024-01-08T13:59:14Z</time>
      </trkpt>
      <trkpt lat="45.74798" lon="6.54936">
        <ele>1544.3</ele>
        <time>2024-01-08T13:59:19Z</time>
      </trkpt>
      <trkpt lat="45.74793" lon="6.54935">
        <ele>1543.8</ele>
        <time>2024-01-08T13:59:24Z</time>
      </trkpt>
      <trkpt lat="45.74789" lon="6.54934">
        <ele>1543.7</ele>
        <time>2024-01-08T13:59:29Z</time>
      </trkpt>
      <trkpt lat="45.74784" lon="6.54934">
        <ele>1543.3</ele>
        <time>2024-01-08T13:59:34Z</time>
      </trkpt>
      <trkpt lat="45.74779" lon="6.54934">
        <ele>1543.4</ele>
        <time>2024-01-08T13:59:41Z</time>
      </trkpt>
      <trkpt lat="45.74774" lon="6.54933">
        <ele>1543.1</ele>
        <time>2024-01-08T13:59:46Z</time>
      </trkpt>
      <trkpt lat="45.7477" lon="6.54933">
        <ele>1542.7</ele>
        <time>2024-01-08T13:59:51Z</time>
      </trkpt>
      <trkpt lat="45.74765" lon="6.54932">
        <ele>1542.5</ele>
        <time>2024-01-08T13:59:56Z</time>
      </trkpt>
      <trkpt lat="45.7476" lon="6.54932">
        <ele>1542.4</ele>
        <time>2024-01-08T14:00:01Z</time>
      </trkpt>
      <trkpt lat="45.74755" lon="6.54932">
        <ele>1542.3</ele>
        <time>2024-01-08T14:00:06Z</time>
      </trkpt>
      <trkpt lat="45.7475" lon="6.54932">
        <ele>1542.1</ele>
        <time>2024-01-08T14:00:11Z</time>
      </trkpt>
      <trkpt lat="45.74745" lon="6.54933">
        <ele>1541.8</ele>
        <time>2024-01-08T14:00:17Z</time>
      </trkpt>
      <trkpt lat="45.7474" lon="6.54934">
        <ele>1541.5</ele>
        <time>2024-01-08T14:00:22Z</time>
      </trkpt>
      <trkpt lat="45.74735" lon="6.54935">
        <ele>1541.1</ele>
        <time>2024-01-08T14:00:27Z</time>
      </trkpt>
      <trkpt lat="45.7473" lon="6.54936">
        <ele>1540.8</ele>
        <time>2024-01-08T14:00:32Z</time>
      </trkpt>
      <trkpt lat="45.74725" lon="6.54938">
        <ele>1540.4</ele>
        <time>2024-01-08T14:00:37Z</time>
      </trkpt>
      <trkpt lat="45.74721" lon="6.54941">
        <ele>1540</ele>
        <time>2024-01-08T14:00:42Z</time>
      </trkpt>
      <trkpt lat="45.74716" lon="6.54942">
        <ele>1539.7</ele>
        <time>2024-01-08T14:00:47Z</time>
      </trkpt>
      <trkpt lat="45.74711" lon="6.54942">
        <ele>1539</ele>
        <time>2024-01-08T14:00:52Z</time>
      </trkpt>
      <trkpt lat="45.74707" lon="6.54941">
        <ele>1537.6</ele>
        <time>2024-01-08T14:00:57Z</time>
      </trkpt>
      <trkpt lat="45.74702" lon="6.54941">
        <ele>1534.3</ele>
        <time>2024-01-08T14:01:25Z</time>
      </trkpt>
      <trkpt lat="45.74697" lon="6.54942">
        <ele>1534.1</ele>
        <time>2024-01-08T14:01:31Z</time>
      </trkpt>
      <trkpt lat="45.74693" lon="6.54941">
        <ele>1533.7</ele>
        <time>2024-01-08T14:01:36Z</time>
      </trkpt>
      <trkpt lat="45.74688" lon="6.54941">
        <ele>1532.9</ele>
        <time>2024-01-08T14:01:41Z</time>
      </trkpt>
      <trkpt lat="45.74683" lon="6.54941">
        <ele>1531.8</ele>
        <time>2024-01-08T14:01:47Z</time>
      </trkpt>
      <trkpt lat="45.74679" lon="6.54945">
        <ele>1531</ele>
        <time>2024-01-08T14:01:53Z</time>
      </trkpt>
      <trkpt lat="45.74675" lon="6.54949">
        <ele>1530.4</ele>
        <time>2024-01-08T14:01:59Z</time>
      </trkpt>
      <trkpt lat="45.74671" lon="6.54953">
        <ele>1529.7</ele>
        <time>2024-01-08T14:02:05Z</time>
      </trkpt>
      <trkpt lat="45.74667" lon="6.54958">
        <ele>1528.8</ele>
        <time>2024-01-08T14:02:11Z</time>
      </trkpt>
      <trkpt lat="45.74664" lon="6.54964">
        <ele>1528</ele>
        <time>2024-01-08T14:02:17Z</time>
      </trkpt>
      <trkpt lat="45.74661" lon="6.5497">
        <ele>1527.1</ele>
        <time>2024-01-08T14:02:22Z</time>
      </trkpt>
      <trkpt lat="45.74658" lon="6.54974">
        <ele>1526.3</ele>
        <time>2024-01-08T14:02:27Z</time>
      </trkpt>
      <trkpt lat="45.74654" lon="6.54978">
        <ele>1525.2</ele>
        <time>2024-01-08T14:02:32Z</time>
      </trkpt>
      <trkpt lat="45.74651" lon="6.54983">
        <ele>1524.3</ele>
        <time>2024-01-08T14:02:37Z</time>
      </trkpt>
      <trkpt lat="45.74647" lon="6.54986">
        <ele>1523.5</ele>
        <time>2024-01-08T14:02:42Z</time>
      </trkpt>
      <trkpt lat="45.74642" lon="6.54989">
        <ele>1522.8</ele>
        <time>2024-01-08T14:02:47Z</time>
      </trkpt>
      <trkpt lat="45.74637" lon="6.54992">
        <ele>1522.7</ele>
        <time>2024-01-08T14:02:52Z</time>
      </trkpt>
      <trkpt lat="45.74632" lon="6.54995">
        <ele>1522.6</ele>
        <time>2024-01-08T14:02:57Z</time>
      </trkpt>
      <trkpt lat="45.74627" lon="6.54996">
        <ele>1522.7</ele>
        <time>2024-01-08T14:03:02Z</time>
      </trkpt>
      <trkpt lat="45.74622" lon="6.54998">
        <ele>1522.9</ele>
        <time>2024-01-08T14:03:07Z</time>
      </trkpt>
      <trkpt lat="45.74618" lon="6.55001">
        <ele>1523.5</ele>
        <time>2024-01-08T14:03:13Z</time>
      </trkpt>
      <trkpt lat="45.74614" lon="6.55006">
        <ele>1523.8</ele>
        <time>2024-01-08T14:03:19Z</time>
      </trkpt>
      <trkpt lat="45.74611" lon="6.55011">
        <ele>1524.4</ele>
        <time>2024-01-08T14:03:25Z</time>
      </trkpt>
      <trkpt lat="45.74608" lon="6.55017">
        <ele>1524.4</ele>
        <time>2024-01-08T14:03:31Z</time>
      </trkpt>
      <trkpt lat="45.74605" lon="6.55022">
        <ele>1524.7</ele>
        <time>2024-01-08T14:03:36Z</time>
      </trkpt>
      <trkpt lat="45.74602" lon="6.55027">
        <ele>1525.1</ele>
        <time>2024-01-08T14:03:41Z</time>
      </trkpt>
      <trkpt lat="45.746" lon="6.55033">
        <ele>1525.5</ele>
        <time>2024-01-08T14:03:47Z</time>
      </trkpt>
      <trkpt lat="45.74597" lon="6.55039">
        <ele>1525.9</ele>
        <time>2024-01-08T14:03:53Z</time>
      </trkpt>
      <trkpt lat="45.74594" lon="6.55044">
        <ele>1525.9</ele>
        <time>2024-01-08T14:03:59Z</time>
      </trkpt>
      <trkpt lat="45.74591" lon="6.5505">
        <ele>1525.8</ele>
        <time>2024-01-08T14:04:05Z</time>
      </trkpt>
      <trkpt lat="45.74588" lon="6.55055">
        <ele>1525.5</ele>
        <time>2024-01-08T14:04:11Z</time>
      </trkpt>
      <trkpt lat="45.74586" lon="6.55061">
        <ele>1525.5</ele>
        <time>2024-01-08T14:04:17Z</time>
      </trkpt>
      <trkpt lat="45.74583" lon="6.55066">
        <ele>1526</ele>
        <time>2024-01-08T14:04:22Z</time>
      </trkpt>
      <trkpt lat="45.7458" lon="6.55072">
        <ele>1526.2</ele>
        <time>2024-01-08T14:04:27Z</time>
      </trkpt>
      <trkpt lat="45.74576" lon="6.55078">
        <ele>1526.4</ele>
        <time>2024-01-08T14:04:32Z</time>
      </trkpt>
      <trkpt lat="45.74573" lon="6.55083">
        <ele>1526</ele>
        <time>2024-01-08T14:04:37Z</time>
      </trkpt>
      <trkpt lat="45.74569" lon="6.55088">
        <ele>1525.3</ele>
        <time>2024-01-08T14:04:46Z</time>
      </trkpt>
      <trkpt lat="45.74565" lon="6.55093">
        <ele>1525.2</ele>
        <time>2024-01-08T14:04:51Z</time>
      </trkpt>
      <trkpt lat="45.74561" lon="6.55096">
        <ele>1525.3</ele>
        <time>2024-01-08T14:04:56Z</time>
      </trkpt>
      <trkpt lat="45.74557" lon="6.551">
        <ele>1526</ele>
        <time>2024-01-08T14:05:01Z</time>
      </trkpt>
      <trkpt lat="45.74552" lon="6.55103">
        <ele>1526.7</ele>
        <time>2024-01-08T14:05:06Z</time>
      </trkpt>
      <trkpt lat="45.74548" lon="6.55107">
        <ele>1527.3</ele>
        <time>2024-01-08T14:05:11Z</time>
      </trkpt>
      <trkpt lat="45.74543" lon="6.55111">
        <ele>1527.4</ele>
        <time>2024-01-08T14:05:16Z</time>
      </trkpt>
      <trkpt lat="45.74539" lon="6.55115">
        <ele>1527.8</ele>
        <time>2024-01-08T14:05:21Z</time>
      </trkpt>
      <trkpt lat="45.74535" lon="6.55118">
        <ele>1528</ele>
        <time>2024-01-08T14:05:26Z</time>
      </trkpt>
      <trkpt lat="45.74531" lon="6.55122">
        <ele>1528.1</ele>
        <time>2024-01-08T14:05:31Z</time>
      </trkpt>
      <trkpt lat="45.74527" lon="6.55126">
        <ele>1528</ele>
        <time>2024-01-08T14:05:36Z</time>
      </trkpt>
      <trkpt lat="45.74523" lon="6.55131">
        <ele>1527.7</ele>
        <time>2024-01-08T14:05:41Z</time>
      </trkpt>
      <trkpt lat="45.7452" lon="6.55136">
        <ele>1527.5</ele>
        <time>2024-01-08T14:05:46Z</time>
      </trkpt>
      <trkpt lat="45.74517" lon="6.55142">
        <ele>1527.5</ele>
        <time>2024-01-08T14:05:51Z</time>
      </trkpt>
      <trkpt lat="45.74514" lon="6.55148">
        <ele>1527.5</ele>
        <time>2024-01-08T14:05:56Z</time>
      </trkpt>
      <trkpt lat="45.7451" lon="6.55153">
        <ele>1527.2</ele>
        <time>2024-01-08T14:06:02Z</time>
      </trkpt>
      <trkpt lat="45.74507" lon="6.55159">
        <ele>1526.9</ele>
        <time>2024-01-08T14:06:08Z</time>
      </trkpt>
      <trkpt lat="45.74504" lon="6.55164">
        <ele>1526.7</ele>
        <time>2024-01-08T14:06:13Z</time>
      </trkpt>
      <trkpt lat="45.74502" lon="6.5517">
        <ele>1526.2</ele>
        <time>2024-01-08T14:06:18Z</time>
      </trkpt>
      <trkpt lat="45.74499" lon="6.55175">
        <ele>1525.8</ele>
        <time>2024-01-08T14:06:23Z</time>
      </trkpt>
      <trkpt lat="45.74497" lon="6.55181">
        <ele>1525.2</ele>
        <time>2024-01-08T14:06:28Z</time>
      </trkpt>
      <trkpt lat="45.74494" lon="6.55187">
        <ele>1524.7</ele>
        <time>2024-01-08T14:06:33Z</time>
      </trkpt>
      <trkpt lat="45.74491" lon="6.55193">
        <ele>1524.4</ele>
        <time>2024-01-08T14:06:38Z</time>
      </trkpt>
      <trkpt lat="45.74489" lon="6.55198">
        <ele>1524.2</ele>
        <time>2024-01-08T14:06:43Z</time>
      </trkpt>
      <trkpt lat="45.74487" lon="6.55204">
        <ele>1524.1</ele>
        <time>2024-01-08T14:06:51Z</time>
      </trkpt>
      <trkpt lat="45.74484" lon="6.5521">
        <ele>1523.7</ele>
        <time>2024-01-08T14:06:59Z</time>
      </trkpt>
      <trkpt lat="45.74481" lon="6.55215">
        <ele>1518.2</ele>
        <time>2024-01-08T14:11:09Z</time>
      </trkpt>
      <trkpt lat="45.74479" lon="6.55221">
        <ele>1516.3</ele>
        <time>2024-01-08T14:11:15Z</time>
      </trkpt>
      <trkpt lat="45.74477" lon="6.55227">
        <ele>1514.9</ele>
        <time>2024-01-08T14:11:21Z</time>
      </trkpt>
      <trkpt lat="45.74476" lon="6.55234">
        <ele>1513.9</ele>
        <time>2024-01-08T14:11:26Z</time>
      </trkpt>
      <trkpt lat="45.74476" lon="6.55241">
        <ele>1512.8</ele>
        <time>2024-01-08T14:11:31Z</time>
      </trkpt>
      <trkpt lat="45.74474" lon="6.55249">
        <ele>1511.7</ele>
        <time>2024-01-08T14:11:36Z</time>
      </trkpt>
      <trkpt lat="45.74473" lon="6.55256">
        <ele>1510.8</ele>
        <time>2024-01-08T14:11:41Z</time>
      </trkpt>
      <trkpt lat="45.74472" lon="6.55264">
        <ele>1509.9</ele>
        <time>2024-01-08T14:11:46Z</time>
      </trkpt>
      <trkpt lat="45.7447" lon="6.55271">
        <ele>1509.2</ele>
        <time>2024-01-08T14:11:51Z</time>
      </trkpt>
      <trkpt lat="45.74469" lon="6.55278">
        <ele>1508.6</ele>
        <time>2024-01-08T14:11:56Z</time>
      </trkpt>
      <trkpt lat="45.74468" lon="6.55286">
        <ele>1507.9</ele>
        <time>2024-01-08T14:12:01Z</time>
      </trkpt>
      <trkpt lat="45.74467" lon="6.55293">
        <ele>1507.3</ele>
        <time>2024-01-08T14:12:06Z</time>
      </trkpt>
      <trkpt lat="45.74465" lon="6.55301">
        <ele>1506.8</ele>
        <time>2024-01-08T14:12:11Z</time>
      </trkpt>
      <trkpt lat="45.74463" lon="6.55308">
        <ele>1506.5</ele>
        <time>2024-01-08T14:12:16Z</time>
      </trkpt>
      <trkpt lat="45.74462" lon="6.55315">
        <ele>1506.4</ele>
        <time>2024-01-08T14:12:21Z</time>
      </trkpt>
      <trkpt lat="45.7446" lon="6.55323">
        <ele>1506</ele>
        <time>2024-01-08T14:12:26Z</time>
      </trkpt>
      <trkpt lat="45.74459" lon="6.55329">
        <ele>1505.6</ele>
        <time>2024-01-08T14:12:30Z</time>
      </trkpt>
      <trkpt lat="45.74457" lon="6.55335">
        <ele>1504.9</ele>
        <time>2024-01-08T14:12:34Z</time>
      </trkpt>
      <trkpt lat="45.74456" lon="6.55341">
        <ele>1504.2</ele>
        <time>2024-01-08T14:12:38Z</time>
      </trkpt>
      <trkpt lat="45.74454" lon="6.55347">
        <ele>1503.6</ele>
        <time>2024-01-08T14:12:42Z</time>
      </trkpt>
      <trkpt lat="45.74451" lon="6.55354">
        <ele>1502.8</ele>
        <time>2024-01-08T14:12:47Z</time>
      </trkpt>
      <trkpt lat="45.74449" lon="6.5536">
        <ele>1502.3</ele>
        <time>2024-01-08T14:12:52Z</time>
      </trkpt>
      <trkpt lat="45.74446" lon="6.55367">
        <ele>1501.9</ele>
        <time>2024-01-08T14:12:57Z</time>
      </trkpt>
      <trkpt lat="45.74444" lon="6.55374">
        <ele>1501.3</ele>
        <time>2024-01-08T14:13:02Z</time>
      </trkpt>
      <trkpt lat="45.74442" lon="6.5538">
        <ele>1500.7</ele>
        <time>2024-01-08T14:13:06Z</time>
      </trkpt>
      <trkpt lat="45.7444" lon="6.55386">
        <ele>1500</ele>
        <time>2024-01-08T14:13:10Z</time>
      </trkpt>
      <trkpt lat="45.74438" lon="6.55394">
        <ele>1499.2</ele>
        <time>2024-01-08T14:13:15Z</time>
      </trkpt>
      <trkpt lat="45.74436" lon="6.55401">
        <ele>1498.3</ele>
        <time>2024-01-08T14:13:20Z</time>
      </trkpt>
      <trkpt lat="45.74434" lon="6.55407">
        <ele>1497.6</ele>
        <time>2024-01-08T14:13:24Z</time>
      </trkpt>
      <trkpt lat="45.74432" lon="6.55413">
        <ele>1497</ele>
        <time>2024-01-08T14:13:28Z</time>
      </trkpt>
      <trkpt lat="45.74431" lon="6.55419">
        <ele>1496.2</ele>
        <time>2024-01-08T14:13:32Z</time>
      </trkpt>
      <trkpt lat="45.74429" lon="6.55426">
        <ele>1495.5</ele>
        <time>2024-01-08T14:13:37Z</time>
      </trkpt>
      <trkpt lat="45.74427" lon="6.55432">
        <ele>1494.8</ele>
        <time>2024-01-08T14:13:42Z</time>
      </trkpt>
      <trkpt lat="45.74424" lon="6.55439">
        <ele>1494</ele>
        <time>2024-01-08T14:13:47Z</time>
      </trkpt>
      <trkpt lat="45.74423" lon="6.55446">
        <ele>1493.1</ele>
        <time>2024-01-08T14:13:52Z</time>
      </trkpt>
      <trkpt lat="45.74421" lon="6.55453">
        <ele>1492.3</ele>
        <time>2024-01-08T14:13:57Z</time>
      </trkpt>
      <trkpt lat="45.74419" lon="6.55459">
        <ele>1491.4</ele>
        <time>2024-01-08T14:14:02Z</time>
      </trkpt>
      <trkpt lat="45.74418" lon="6.55466">
        <ele>1490.3</ele>
        <time>2024-01-08T14:14:07Z</time>
      </trkpt>
      <trkpt lat="45.74418" lon="6.55473">
        <ele>1489.4</ele>
        <time>2024-01-08T14:14:12Z</time>
      </trkpt>
      <trkpt lat="45.74418" lon="6.5548">
        <ele>1488.5</ele>
        <time>2024-01-08T14:14:17Z</time>
      </trkpt>
      <trkpt lat="45.74418" lon="6.55488">
        <ele>1487.4</ele>
        <time>2024-01-08T14:14:22Z</time>
      </trkpt>
      <trkpt lat="45.74418" lon="6.55495">
        <ele>1486.7</ele>
        <time>2024-01-08T14:14:27Z</time>
      </trkpt>
      <trkpt lat="45.74418" lon="6.55503">
        <ele>1486.4</ele>
        <time>2024-01-08T14:14:32Z</time>
      </trkpt>
      <trkpt lat="45.74418" lon="6.5551">
        <ele>1486</ele>
        <time>2024-01-08T14:14:37Z</time>
      </trkpt>
      <trkpt lat="45.74417" lon="6.55518">
        <ele>1485.7</ele>
        <time>2024-01-08T14:14:42Z</time>
      </trkpt>
      <trkpt lat="45.74417" lon="6.55525">
        <ele>1485.4</ele>
        <time>2024-01-08T14:14:47Z</time>
      </trkpt>
      <trkpt lat="45.74417" lon="6.55532">
        <ele>1484.8</ele>
        <time>2024-01-08T14:14:52Z</time>
      </trkpt>
      <trkpt lat="45.74417" lon="6.55539">
        <ele>1484</ele>
        <time>2024-01-08T14:14:57Z</time>
      </trkpt>
      <trkpt lat="45.74417" lon="6.55547">
        <ele>1483.4</ele>
        <time>2024-01-08T14:15:02Z</time>
      </trkpt>
      <trkpt lat="45.74417" lon="6.55554">
        <ele>1482.6</ele>
        <time>2024-01-08T14:15:07Z</time>
      </trkpt>
      <trkpt lat="45.74416" lon="6.55561">
        <ele>1481.8</ele>
        <time>2024-01-08T14:15:12Z</time>
      </trkpt>
      <trkpt lat="45.74415" lon="6.55568">
        <ele>1480.9</ele>
        <time>2024-01-08T14:15:17Z</time>
      </trkpt>
      <trkpt lat="45.74414" lon="6.55575">
        <ele>1479.9</ele>
        <time>2024-01-08T14:15:22Z</time>
      </trkpt>
      <trkpt lat="45.74413" lon="6.55581">
        <ele>1479</ele>
        <time>2024-01-08T14:15:27Z</time>
      </trkpt>
      <trkpt lat="45.74413" lon="6.55588">
        <ele>1478.1</ele>
        <time>2024-01-08T14:15:32Z</time>
      </trkpt>
      <trkpt lat="45.74413" lon="6.55596">
        <ele>1477.3</ele>
        <time>2024-01-08T14:15:37Z</time>
      </trkpt>
      <trkpt lat="45.74413" lon="6.55603">
        <ele>1476.3</ele>
        <time>2024-01-08T14:15:42Z</time>
      </trkpt>
      <trkpt lat="45.74413" lon="6.55611">
        <ele>1475.6</ele>
        <time>2024-01-08T14:15:47Z</time>
      </trkpt>
      <trkpt lat="45.74415" lon="6.55618">
        <ele>1475.1</ele>
        <time>2024-01-08T14:15:52Z</time>
      </trkpt>
      <trkpt lat="45.74414" lon="6.55624">
        <ele>1477.1</ele>
        <time>2024-01-08T14:17:33Z</time>
      </trkpt>
      <trkpt lat="45.74413" lon="6.55631">
        <ele>1476.9</ele>
        <time>2024-01-08T14:17:39Z</time>
      </trkpt>
      <trkpt lat="45.74413" lon="6.55638">
        <ele>1476</ele>
        <time>2024-01-08T14:17:43Z</time>
      </trkpt>
      <trkpt lat="45.74414" lon="6.55645">
        <ele>1474.5</ele>
        <time>2024-01-08T14:17:48Z</time>
      </trkpt>
      <trkpt lat="45.74415" lon="6.55652">
        <ele>1473.6</ele>
        <time>2024-01-08T14:17:52Z</time>
      </trkpt>
      <trkpt lat="45.74416" lon="6.55659">
        <ele>1473</ele>
        <time>2024-01-08T14:17:56Z</time>
      </trkpt>
      <trkpt lat="45.74417" lon="6.55665">
        <ele>1472.4</ele>
        <time>2024-01-08T14:18:00Z</time>
      </trkpt>
      <trkpt lat="45.74417" lon="6.55673">
        <ele>1471.8</ele>
        <time>2024-01-08T14:18:05Z</time>
      </trkpt>
      <trkpt lat="45.74418" lon="6.5568">
        <ele>1471.3</ele>
        <time>2024-01-08T14:18:09Z</time>
      </trkpt>
      <trkpt lat="45.7442" lon="6.55688">
        <ele>1470.3</ele>
        <time>2024-01-08T14:18:14Z</time>
      </trkpt>
      <trkpt lat="45.74421" lon="6.55694">
        <ele>1469.6</ele>
        <time>2024-01-08T14:18:18Z</time>
      </trkpt>
      <trkpt lat="45.74422" lon="6.55701">
        <ele>1468.7</ele>
        <time>2024-01-08T14:18:22Z</time>
      </trkpt>
      <trkpt lat="45.74423" lon="6.55707">
        <ele>1467.9</ele>
        <time>2024-01-08T14:18:26Z</time>
      </trkpt>
      <trkpt lat="45.74425" lon="6.55714">
        <ele>1467.3</ele>
        <time>2024-01-08T14:18:30Z</time>
      </trkpt>
      <trkpt lat="45.74426" lon="6.55721">
        <ele>1466.1</ele>
        <time>2024-01-08T14:18:35Z</time>
      </trkpt>
      <trkpt lat="45.74429" lon="6.55728">
        <ele>1465</ele>
        <time>2024-01-08T14:18:40Z</time>
      </trkpt>
      <trkpt lat="45.7443" lon="6.55734">
        <ele>1464.3</ele>
        <time>2024-01-08T14:18:44Z</time>
      </trkpt>
      <trkpt lat="45.74432" lon="6.5574">
        <ele>1463.7</ele>
        <time>2024-01-08T14:18:48Z</time>
      </trkpt>
      <trkpt lat="45.74435" lon="6.55748">
        <ele>1463.5</ele>
        <time>2024-01-08T14:18:53Z</time>
      </trkpt>
      <trkpt lat="45.74437" lon="6.55754">
        <ele>1463.1</ele>
        <time>2024-01-08T14:18:57Z</time>
      </trkpt>
      <trkpt lat="45.74439" lon="6.5576">
        <ele>1462.5</ele>
        <time>2024-01-08T14:19:01Z</time>
      </trkpt>
      <trkpt lat="45.74441" lon="6.55767">
        <ele>1461.8</ele>
        <time>2024-01-08T14:19:06Z</time>
      </trkpt>
      <trkpt lat="45.74443" lon="6.55774">
        <ele>1461</ele>
        <time>2024-01-08T14:19:11Z</time>
      </trkpt>
      <trkpt lat="45.74445" lon="6.55781">
        <ele>1460</ele>
        <time>2024-01-08T14:19:16Z</time>
      </trkpt>
      <trkpt lat="45.74447" lon="6.55788">
        <ele>1459.2</ele>
        <time>2024-01-08T14:19:21Z</time>
      </trkpt>
      <trkpt lat="45.74448" lon="6.55796">
        <ele>1458.5</ele>
        <time>2024-01-08T14:19:26Z</time>
      </trkpt>
      <trkpt lat="45.74449" lon="6.55802">
        <ele>1457.7</ele>
        <time>2024-01-08T14:19:30Z</time>
      </trkpt>
      <trkpt lat="45.7445" lon="6.55809">
        <ele>1457.2</ele>
        <time>2024-01-08T14:19:34Z</time>
      </trkpt>
      <trkpt lat="45.74451" lon="6.55816">
        <ele>1456.9</ele>
        <time>2024-01-08T14:19:38Z</time>
      </trkpt>
      <trkpt lat="45.74453" lon="6.55822">
        <ele>1456.5</ele>
        <time>2024-01-08T14:19:42Z</time>
      </trkpt>
      <trkpt lat="45.74455" lon="6.55828">
        <ele>1455.9</ele>
        <time>2024-01-08T14:19:46Z</time>
      </trkpt>
      <trkpt lat="45.74458" lon="6.55834">
        <ele>1455.3</ele>
        <time>2024-01-08T14:19:50Z</time>
      </trkpt>
      <trkpt lat="45.7446" lon="6.5584">
        <ele>1454.8</ele>
        <time>2024-01-08T14:19:54Z</time>
      </trkpt>
      <trkpt lat="45.74462" lon="6.55846">
        <ele>1453.7</ele>
        <time>2024-01-08T14:19:59Z</time>
      </trkpt>
      <trkpt lat="45.74465" lon="6.55853">
        <ele>1453.1</ele>
        <time>2024-01-08T14:20:04Z</time>
      </trkpt>
      <trkpt lat="45.74468" lon="6.55858">
        <ele>1452.8</ele>
        <time>2024-01-08T14:20:08Z</time>
      </trkpt>
      <trkpt lat="45.74472" lon="6.55864">
        <ele>1452.6</ele>
        <time>2024-01-08T14:20:13Z</time>
      </trkpt>
      <trkpt lat="45.74473" lon="6.5587">
        <ele>1453</ele>
        <time>2024-01-08T14:20:45Z</time>
      </trkpt>
      <trkpt lat="45.74477" lon="6.55873">
        <ele>1452.2</ele>
        <time>2024-01-08T14:20:49Z</time>
      </trkpt>
      <trkpt lat="45.74481" lon="6.55878">
        <ele>1451.6</ele>
        <time>2024-01-08T14:20:53Z</time>
      </trkpt>
      <trkpt lat="45.74485" lon="6.55882">
        <ele>1450.9</ele>
        <time>2024-01-08T14:20:57Z</time>
      </trkpt>
      <trkpt lat="45.74488" lon="6.55886">
        <ele>1450.1</ele>
        <time>2024-01-08T14:21:01Z</time>
      </trkpt>
      <trkpt lat="45.74492" lon="6.55891">
        <ele>1449</ele>
        <time>2024-01-08T14:21:06Z</time>
      </trkpt>
      <trkpt lat="45.74496" lon="6.55897">
        <ele>1448.3</ele>
        <time>2024-01-08T14:21:11Z</time>
      </trkpt>
      <trkpt lat="45.74499" lon="6.55904">
        <ele>1448.2</ele>
        <time>2024-01-08T14:21:16Z</time>
      </trkpt>
      <trkpt lat="45.74501" lon="6.55911">
        <ele>1447.7</ele>
        <time>2024-01-08T14:21:21Z</time>
      </trkpt>
      <trkpt lat="45.74502" lon="6.55917">
        <ele>1447.1</ele>
        <time>2024-01-08T14:21:25Z</time>
      </trkpt>
      <trkpt lat="45.74503" lon="6.55923">
        <ele>1446.6</ele>
        <time>2024-01-08T14:21:29Z</time>
      </trkpt>
      <trkpt lat="45.74503" lon="6.5593">
        <ele>1445.9</ele>
        <time>2024-01-08T14:21:33Z</time>
      </trkpt>
      <trkpt lat="45.74502" lon="6.55937">
        <ele>1445.3</ele>
        <time>2024-01-08T14:21:38Z</time>
      </trkpt>
      <trkpt lat="45.74499" lon="6.55942">
        <ele>1444.7</ele>
        <time>2024-01-08T14:21:42Z</time>
      </trkpt>
      <trkpt lat="45.74495" lon="6.55947">
        <ele>1444.2</ele>
        <time>2024-01-08T14:21:46Z</time>
      </trkpt>
      <trkpt lat="45.74492" lon="6.55952">
        <ele>1443.6</ele>
        <time>2024-01-08T14:21:50Z</time>
      </trkpt>
      <trkpt lat="45.74488" lon="6.55957">
        <ele>1442.7</ele>
        <time>2024-01-08T14:21:54Z</time>
      </trkpt>
      <trkpt lat="45.74485" lon="6.55962">
        <ele>1441.9</ele>
        <time>2024-01-08T14:21:58Z</time>
      </trkpt>
      <trkpt lat="45.74482" lon="6.55968">
        <ele>1441.1</ele>
        <time>2024-01-08T14:22:02Z</time>
      </trkpt>
      <trkpt lat="45.74479" lon="6.55973">
        <ele>1440.6</ele>
        <time>2024-01-08T14:22:06Z</time>
      </trkpt>
      <trkpt lat="45.74477" lon="6.55979">
        <ele>1440</ele>
        <time>2024-01-08T14:22:10Z</time>
      </trkpt>
      <trkpt lat="45.74479" lon="6.55984">
        <ele>1439.2</ele>
        <time>2024-01-08T14:22:15Z</time>
      </trkpt>
      <trkpt lat="45.74476" lon="6.5599">
        <ele>1438</ele>
        <time>2024-01-08T14:22:30Z</time>
      </trkpt>
      <trkpt lat="45.74475" lon="6.55996">
        <ele>1438.2</ele>
        <time>2024-01-08T14:22:34Z</time>
      </trkpt>
      <trkpt lat="45.74474" lon="6.56003">
        <ele>1438</ele>
        <time>2024-01-08T14:22:39Z</time>
      </trkpt>
      <trkpt lat="45.74473" lon="6.56011">
        <ele>1437.8</ele>
        <time>2024-01-08T14:22:44Z</time>
      </trkpt>
      <trkpt lat="45.74472" lon="6.56018">
        <ele>1437.8</ele>
        <time>2024-01-08T14:22:48Z</time>
      </trkpt>
      <trkpt lat="45.74473" lon="6.56026">
        <ele>1437.7</ele>
        <time>2024-01-08T14:22:52Z</time>
      </trkpt>
      <trkpt lat="45.74474" lon="6.56033">
        <ele>1437.7</ele>
        <time>2024-01-08T14:22:56Z</time>
      </trkpt>
      <trkpt lat="45.74476" lon="6.56041">
        <ele>1437.7</ele>
        <time>2024-01-08T14:23:00Z</time>
      </trkpt>
      <trkpt lat="45.74478" lon="6.56047">
        <ele>1437.9</ele>
        <time>2024-01-08T14:23:03Z</time>
      </trkpt>
      <trkpt lat="45.7448" lon="6.56053">
        <ele>1437.9</ele>
        <time>2024-01-08T14:23:06Z</time>
      </trkpt>
      <trkpt lat="45.74483" lon="6.5606">
        <ele>1437.9</ele>
        <time>2024-01-08T14:23:10Z</time>
      </trkpt>
      <trkpt lat="45.74487" lon="6.56066">
        <ele>1437.4</ele>
        <time>2024-01-08T14:23:14Z</time>
      </trkpt>
      <trkpt lat="45.74491" lon="6.56071">
        <ele>1436.9</ele>
        <time>2024-01-08T14:23:18Z</time>
      </trkpt>
      <trkpt lat="45.74494" lon="6.56077">
        <ele>1436.3</ele>
        <time>2024-01-08T14:23:22Z</time>
      </trkpt>
      <trkpt lat="45.74497" lon="6.56083">
        <ele>1435.9</ele>
        <time>2024-01-08T14:23:26Z</time>
      </trkpt>
      <trkpt lat="45.745" lon="6.56089">
        <ele>1435.5</ele>
        <time>2024-01-08T14:23:30Z</time>
      </trkpt>
      <trkpt lat="45.74503" lon="6.56094">
        <ele>1435.3</ele>
        <time>2024-01-08T14:23:34Z</time>
      </trkpt>
      <trkpt lat="45.74507" lon="6.561">
        <ele>1435.1</ele>
        <time>2024-01-08T14:23:38Z</time>
      </trkpt>
      <trkpt lat="45.7451" lon="6.56106">
        <ele>1434.5</ele>
        <time>2024-01-08T14:23:42Z</time>
      </trkpt>
      <trkpt lat="45.74513" lon="6.56111">
        <ele>1434.3</ele>
        <time>2024-01-08T14:23:46Z</time>
      </trkpt>
      <trkpt lat="45.74516" lon="6.56116">
        <ele>1433.9</ele>
        <time>2024-01-08T14:23:50Z</time>
      </trkpt>
      <trkpt lat="45.74519" lon="6.56122">
        <ele>1433.4</ele>
        <time>2024-01-08T14:23:54Z</time>
      </trkpt>
      <trkpt lat="45.74522" lon="6.56127">
        <ele>1432.9</ele>
        <time>2024-01-08T14:23:58Z</time>
      </trkpt>
      <trkpt lat="45.74526" lon="6.56133">
        <ele>1432.5</ele>
        <time>2024-01-08T14:24:02Z</time>
      </trkpt>
      <trkpt lat="45.74529" lon="6.56139">
        <ele>1432.3</ele>
        <time>2024-01-08T14:24:06Z</time>
      </trkpt>
      <trkpt lat="45.74532" lon="6.56144">
        <ele>1431.7</ele>
        <time>2024-01-08T14:24:10Z</time>
      </trkpt>
      <trkpt lat="45.74536" lon="6.56148">
        <ele>1431.1</ele>
        <time>2024-01-08T14:24:14Z</time>
      </trkpt>
      <trkpt lat="45.7454" lon="6.56154">
        <ele>1430.7</ele>
        <time>2024-01-08T14:24:19Z</time>
      </trkpt>
      <trkpt lat="45.74543" lon="6.56158">
        <ele>1430</ele>
        <time>2024-01-08T14:24:23Z</time>
      </trkpt>
      <trkpt lat="45.74546" lon="6.56164">
        <ele>1429.2</ele>
        <time>2024-01-08T14:24:27Z</time>
      </trkpt>
      <trkpt lat="45.7455" lon="6.56168">
        <ele>1428.3</ele>
        <time>2024-01-08T14:24:31Z</time>
      </trkpt>
      <trkpt lat="45.74554" lon="6.56172">
        <ele>1427.3</ele>
        <time>2024-01-08T14:24:35Z</time>
      </trkpt>
      <trkpt lat="45.74558" lon="6.56176">
        <ele>1426.6</ele>
        <time>2024-01-08T14:24:39Z</time>
      </trkpt>
      <trkpt lat="45.74562" lon="6.56181">
        <ele>1426</ele>
        <time>2024-01-08T14:24:43Z</time>
      </trkpt>
      <trkpt lat="45.74565" lon="6.56187">
        <ele>1425.7</ele>
        <time>2024-01-08T14:24:47Z</time>
      </trkpt>
      <trkpt lat="45.74568" lon="6.56192">
        <ele>1425.4</ele>
        <time>2024-01-08T14:24:51Z</time>
      </trkpt>
      <trkpt lat="45.74571" lon="6.56198">
        <ele>1425.5</ele>
        <time>2024-01-08T14:24:55Z</time>
      </trkpt>
      <trkpt lat="45.74574" lon="6.56205">
        <ele>1425.2</ele>
        <time>2024-01-08T14:24:59Z</time>
      </trkpt>
      <trkpt lat="45.74577" lon="6.56211">
        <ele>1425</ele>
        <time>2024-01-08T14:25:03Z</time>
      </trkpt>
      <trkpt lat="45.7458" lon="6.56217">
        <ele>1424.8</ele>
        <time>2024-01-08T14:25:07Z</time>
      </trkpt>
      <trkpt lat="45.74583" lon="6.56223">
        <ele>1424.9</ele>
        <time>2024-01-08T14:25:11Z</time>
      </trkpt>
      <trkpt lat="45.74585" lon="6.56229">
        <ele>1424.8</ele>
        <time>2024-01-08T14:25:15Z</time>
      </trkpt>
      <trkpt lat="45.74588" lon="6.56236">
        <ele>1424.8</ele>
        <time>2024-01-08T14:25:19Z</time>
      </trkpt>
      <trkpt lat="45.7459" lon="6.56243">
        <ele>1424</ele>
        <time>2024-01-08T14:25:23Z</time>
      </trkpt>
      <trkpt lat="45.74592" lon="6.5625">
        <ele>1423.5</ele>
        <time>2024-01-08T14:25:27Z</time>
      </trkpt>
      <trkpt lat="45.74595" lon="6.56256">
        <ele>1423.5</ele>
        <time>2024-01-08T14:25:31Z</time>
      </trkpt>
      <trkpt lat="45.74595" lon="6.56264">
        <ele>1423.7</ele>
        <time>2024-01-08T14:25:36Z</time>
      </trkpt>
      <trkpt lat="45.74592" lon="6.5627">
        <ele>1424.1</ele>
        <time>2024-01-08T14:25:41Z</time>
      </trkpt>
      <trkpt lat="45.74592" lon="6.56277">
        <ele>1424</ele>
        <time>2024-01-08T14:25:46Z</time>
      </trkpt>
      <trkpt lat="45.74593" lon="6.56284">
        <ele>1423.9</ele>
        <time>2024-01-08T14:25:51Z</time>
      </trkpt>
      <trkpt lat="45.74593" lon="6.56292">
        <ele>1423.5</ele>
        <time>2024-01-08T14:26:00Z</time>
      </trkpt>
      <trkpt lat="45.74591" lon="6.56298">
        <ele>1423</ele>
        <time>2024-01-08T14:26:05Z</time>
      </trkpt>
      <trkpt lat="45.74588" lon="6.56305">
        <ele>1422.1</ele>
        <time>2024-01-08T14:26:10Z</time>
      </trkpt>
      <trkpt lat="45.74587" lon="6.56313">
        <ele>1421.3</ele>
        <time>2024-01-08T14:26:15Z</time>
      </trkpt>
      <trkpt lat="45.74586" lon="6.5632">
        <ele>1420.5</ele>
        <time>2024-01-08T14:26:20Z</time>
      </trkpt>
      <trkpt lat="45.74586" lon="6.56328">
        <ele>1419.4</ele>
        <time>2024-01-08T14:26:25Z</time>
      </trkpt>
      <trkpt lat="45.74586" lon="6.56335">
        <ele>1418.4</ele>
        <time>2024-01-08T14:26:30Z</time>
      </trkpt>
      <trkpt lat="45.74587" lon="6.56343">
        <ele>1417.3</ele>
        <time>2024-01-08T14:26:35Z</time>
      </trkpt>
      <trkpt lat="45.74588" lon="6.5635">
        <ele>1416.5</ele>
        <time>2024-01-08T14:26:39Z</time>
      </trkpt>
      <trkpt lat="45.74589" lon="6.56356">
        <ele>1415.8</ele>
        <time>2024-01-08T14:26:43Z</time>
      </trkpt>
      <trkpt lat="45.74592" lon="6.56363">
        <ele>1415.1</ele>
        <time>2024-01-08T14:26:47Z</time>
      </trkpt>
      <trkpt lat="45.74594" lon="6.5637">
        <ele>1414.5</ele>
        <time>2024-01-08T14:26:51Z</time>
      </trkpt>
      <trkpt lat="45.74597" lon="6.56376">
        <ele>1414.1</ele>
        <time>2024-01-08T14:26:55Z</time>
      </trkpt>
      <trkpt lat="45.746" lon="6.56381">
        <ele>1413.7</ele>
        <time>2024-01-08T14:26:59Z</time>
      </trkpt>
      <trkpt lat="45.74604" lon="6.56386">
        <ele>1413.3</ele>
        <time>2024-01-08T14:27:03Z</time>
      </trkpt>
      <trkpt lat="45.74608" lon="6.56391">
        <ele>1413</ele>
        <time>2024-01-08T14:27:07Z</time>
      </trkpt>
      <trkpt lat="45.74612" lon="6.56395">
        <ele>1412.7</ele>
        <time>2024-01-08T14:27:11Z</time>
      </trkpt>
      <trkpt lat="45.74616" lon="6.56398">
        <ele>1412.4</ele>
        <time>2024-01-08T14:27:15Z</time>
      </trkpt>
      <trkpt lat="45.7462" lon="6.56403">
        <ele>1411.9</ele>
        <time>2024-01-08T14:27:20Z</time>
      </trkpt>
      <trkpt lat="45.74625" lon="6.56408">
        <ele>1411.8</ele>
        <time>2024-01-08T14:27:25Z</time>
      </trkpt>
      <trkpt lat="45.74629" lon="6.56412">
        <ele>1411.6</ele>
        <time>2024-01-08T14:27:31Z</time>
      </trkpt>
      <trkpt lat="45.74633" lon="6.56417">
        <ele>1411.2</ele>
        <time>2024-01-08T14:27:36Z</time>
      </trkpt>
      <trkpt lat="45.74638" lon="6.5642">
        <ele>1410.8</ele>
        <time>2024-01-08T14:27:41Z</time>
      </trkpt>
      <trkpt lat="45.74642" lon="6.56422">
        <ele>1410.2</ele>
        <time>2024-01-08T14:27:45Z</time>
      </trkpt>
      <trkpt lat="45.74648" lon="6.56423">
        <ele>1409.2</ele>
        <time>2024-01-08T14:27:50Z</time>
      </trkpt>
      <trkpt lat="45.74653" lon="6.56423">
        <ele>1408.2</ele>
        <time>2024-01-08T14:27:55Z</time>
      </trkpt>
      <trkpt lat="45.74658" lon="6.56422">
        <ele>1407.1</ele>
        <time>2024-01-08T14:28:33Z</time>
      </trkpt>
      <trkpt lat="45.74663" lon="6.56421">
        <ele>1406.5</ele>
        <time>2024-01-08T14:28:38Z</time>
      </trkpt>
      <trkpt lat="45.74668" lon="6.5642">
        <ele>1405.8</ele>
        <time>2024-01-08T14:28:43Z</time>
      </trkpt>
      <trkpt lat="45.74673" lon="6.56419">
        <ele>1405</ele>
        <time>2024-01-08T14:28:48Z</time>
      </trkpt>
      <trkpt lat="45.74678" lon="6.56418">
        <ele>1404.3</ele>
        <time>2024-01-08T14:28:53Z</time>
      </trkpt>
      <trkpt lat="45.74683" lon="6.56418">
        <ele>1403.9</ele>
        <time>2024-01-08T14:28:57Z</time>
      </trkpt>
      <trkpt lat="45.74689" lon="6.56418">
        <ele>1403.1</ele>
        <time>2024-01-08T14:29:02Z</time>
      </trkpt>
      <trkpt lat="45.74694" lon="6.56417">
        <ele>1402.5</ele>
        <time>2024-01-08T14:29:06Z</time>
      </trkpt>
      <trkpt lat="45.74699" lon="6.56417">
        <ele>1402.1</ele>
        <time>2024-01-08T14:29:10Z</time>
      </trkpt>
      <trkpt lat="45.74703" lon="6.56417">
        <ele>1401.7</ele>
        <time>2024-01-08T14:29:14Z</time>
      </trkpt>
      <trkpt lat="45.74708" lon="6.56416">
        <ele>1401.7</ele>
        <time>2024-01-08T14:29:18Z</time>
      </trkpt>
      <trkpt lat="45.74712" lon="6.56415">
        <ele>1402.6</ele>
        <time>2024-01-08T14:29:44Z</time>
      </trkpt>
      <trkpt lat="45.74717" lon="6.56415">
        <ele>1402.5</ele>
        <time>2024-01-08T14:29:50Z</time>
      </trkpt>
      <trkpt lat="45.74723" lon="6.56416">
        <ele>1401.9</ele>
        <time>2024-01-08T14:29:56Z</time>
      </trkpt>
      <trkpt lat="45.74727" lon="6.5642">
        <ele>1400.9</ele>
        <time>2024-01-08T14:30:01Z</time>
      </trkpt>
      <trkpt lat="45.74727" lon="6.56427">
        <ele>1400.6</ele>
        <time>2024-01-08T14:30:07Z</time>
      </trkpt>
      <trkpt lat="45.74723" lon="6.56432">
        <ele>1400.9</ele>
        <time>2024-01-08T14:30:12Z</time>
      </trkpt>
      <trkpt lat="45.74718" lon="6.56437">
        <ele>1401.1</ele>
        <time>2024-01-08T14:30:17Z</time>
      </trkpt>
      <trkpt lat="45.74715" lon="6.56442">
        <ele>1401.2</ele>
        <time>2024-01-08T14:30:22Z</time>
      </trkpt>
      <trkpt lat="45.74712" lon="6.56448">
        <ele>1401.4</ele>
        <time>2024-01-08T14:30:26Z</time>
      </trkpt>
      <trkpt lat="45.74708" lon="6.56454">
        <ele>1401.7</ele>
        <time>2024-01-08T14:30:30Z</time>
      </trkpt>
      <trkpt lat="45.74705" lon="6.56459">
        <ele>1402.2</ele>
        <time>2024-01-08T14:30:34Z</time>
      </trkpt>
      <trkpt lat="45.74701" lon="6.56464">
        <ele>1402.8</ele>
        <time>2024-01-08T14:30:38Z</time>
      </trkpt>
      <trkpt lat="45.74697" lon="6.56468">
        <ele>1403.4</ele>
        <time>2024-01-08T14:30:42Z</time>
      </trkpt>
      <trkpt lat="45.74694" lon="6.56473">
        <ele>1404.1</ele>
        <time>2024-01-08T14:30:46Z</time>
      </trkpt>
      <trkpt lat="45.7469" lon="6.56478">
        <ele>1404.9</ele>
        <time>2024-01-08T14:30:50Z</time>
      </trkpt>
      <trkpt lat="45.74687" lon="6.56483">
        <ele>1405.7</ele>
        <time>2024-01-08T14:30:54Z</time>
      </trkpt>
      <trkpt lat="45.74685" lon="6.5649">
        <ele>1406.9</ele>
        <time>2024-01-08T14:30:59Z</time>
      </trkpt>
      <trkpt lat="45.74684" lon="6.56498">
        <ele>1407.4</ele>
        <time>2024-01-08T14:31:04Z</time>
      </trkpt>
      <trkpt lat="45.74684" lon="6.56505">
        <ele>1408</ele>
        <time>2024-01-08T14:31:09Z</time>
      </trkpt>
      <trkpt lat="45.74684" lon="6.56512">
        <ele>1408.4</ele>
        <time>2024-01-08T14:31:14Z</time>
      </trkpt>
      <trkpt lat="45.74684" lon="6.56519">
        <ele>1408</ele>
        <time>2024-01-08T14:31:20Z</time>
      </trkpt>
      <trkpt lat="45.74682" lon="6.56525">
        <ele>1407.8</ele>
        <time>2024-01-08T14:31:26Z</time>
      </trkpt>
      <trkpt lat="45.74683" lon="6.56531">
        <ele>1407.1</ele>
        <time>2024-01-08T14:31:31Z</time>
      </trkpt>
      <trkpt lat="45.74682" lon="6.56538">
        <ele>1405.4</ele>
        <time>2024-01-08T14:31:37Z</time>
      </trkpt>
      <trkpt lat="45.74682" lon="6.56546">
        <ele>1403.6</ele>
        <time>2024-01-08T14:31:43Z</time>
      </trkpt>
      <trkpt lat="45.74681" lon="6.56552">
        <ele>1402</ele>
        <time>2024-01-08T14:31:48Z</time>
      </trkpt>
      <trkpt lat="45.7468" lon="6.56559">
        <ele>1400.4</ele>
        <time>2024-01-08T14:31:53Z</time>
      </trkpt>
      <trkpt lat="45.74678" lon="6.56566">
        <ele>1399.1</ele>
        <time>2024-01-08T14:31:58Z</time>
      </trkpt>
      <trkpt lat="45.74675" lon="6.56572">
        <ele>1398</ele>
        <time>2024-01-08T14:32:03Z</time>
      </trkpt>
      <trkpt lat="45.74672" lon="6.56577">
        <ele>1397</ele>
        <time>2024-01-08T14:32:08Z</time>
      </trkpt>
      <trkpt lat="45.74668" lon="6.56582">
        <ele>1396.1</ele>
        <time>2024-01-08T14:32:13Z</time>
      </trkpt>
      <trkpt lat="45.74665" lon="6.56587">
        <ele>1394.8</ele>
        <time>2024-01-08T14:32:18Z</time>
      </trkpt>
      <trkpt lat="45.74662" lon="6.56593">
        <ele>1393.2</ele>
        <time>2024-01-08T14:32:23Z</time>
      </trkpt>
      <trkpt lat="45.74661" lon="6.566">
        <ele>1391.6</ele>
        <time>2024-01-08T14:32:29Z</time>
      </trkpt>
      <trkpt lat="45.74658" lon="6.56607">
        <ele>1390.3</ele>
        <time>2024-01-08T14:32:35Z</time>
      </trkpt>
      <trkpt lat="45.74654" lon="6.56612">
        <ele>1389</ele>
        <time>2024-01-08T14:32:41Z</time>
      </trkpt>
      <trkpt lat="45.7465" lon="6.56614">
        <ele>1388.3</ele>
        <time>2024-01-08T14:32:46Z</time>
      </trkpt>
      <trkpt lat="45.74648" lon="6.5662">
        <ele>1388.4</ele>
        <time>2024-01-08T14:32:52Z</time>
      </trkpt>
      <trkpt lat="45.74649" lon="6.56627">
        <ele>1387.3</ele>
        <time>2024-01-08T14:32:57Z</time>
      </trkpt>
      <trkpt lat="45.74653" lon="6.5663">
        <ele>1385.6</ele>
        <time>2024-01-08T14:33:03Z</time>
      </trkpt>
      <trkpt lat="45.74657" lon="6.56634">
        <ele>1384.1</ele>
        <time>2024-01-08T14:33:08Z</time>
      </trkpt>
      <trkpt lat="45.74662" lon="6.56639">
        <ele>1381.7</ele>
        <time>2024-01-08T14:33:14Z</time>
      </trkpt>
      <trkpt lat="45.74665" lon="6.56644">
        <ele>1379.8</ele>
        <time>2024-01-08T14:33:20Z</time>
      </trkpt>
      <trkpt lat="45.74668" lon="6.5665">
        <ele>1378.3</ele>
        <time>2024-01-08T14:33:25Z</time>
      </trkpt>
      <trkpt lat="45.74671" lon="6.56656">
        <ele>1377.2</ele>
        <time>2024-01-08T14:33:30Z</time>
      </trkpt>
      <trkpt lat="45.74674" lon="6.56661">
        <ele>1376.3</ele>
        <time>2024-01-08T14:33:35Z</time>
      </trkpt>
      <trkpt lat="45.74677" lon="6.56666">
        <ele>1375.3</ele>
        <time>2024-01-08T14:33:40Z</time>
      </trkpt>
      <trkpt lat="45.74679" lon="6.56673">
        <ele>1374.6</ele>
        <time>2024-01-08T14:33:45Z</time>
      </trkpt>
      <trkpt lat="45.74682" lon="6.56679">
        <ele>1374</ele>
        <time>2024-01-08T14:33:50Z</time>
      </trkpt>
      <trkpt lat="45.74685" lon="6.56685">
        <ele>1373.6</ele>
        <time>2024-01-08T14:33:55Z</time>
      </trkpt>
      <trkpt lat="45.74689" lon="6.5669">
        <ele>1373.5</ele>
        <time>2024-01-08T14:34:00Z</time>
      </trkpt>
      <trkpt lat="45.7469" lon="6.56697">
        <ele>1373.4</ele>
        <time>2024-01-08T14:34:06Z</time>
      </trkpt>
      <trkpt lat="45.74687" lon="6.56703">
        <ele>1373</ele>
        <time>2024-01-08T14:34:12Z</time>
      </trkpt>
      <trkpt lat="45.74686" lon="6.56709">
        <ele>1372.6</ele>
        <time>2024-01-08T14:34:17Z</time>
      </trkpt>
      <trkpt lat="45.74686" lon="6.56717">
        <ele>1372.1</ele>
        <time>2024-01-08T14:34:22Z</time>
      </trkpt>
      <trkpt lat="45.74686" lon="6.56724">
        <ele>1372</ele>
        <time>2024-01-08T14:34:26Z</time>
      </trkpt>
      <trkpt lat="45.74687" lon="6.56731">
        <ele>1371.5</ele>
        <time>2024-01-08T14:34:31Z</time>
      </trkpt>
      <trkpt lat="45.74687" lon="6.56739">
        <ele>1371.3</ele>
        <time>2024-01-08T14:34:36Z</time>
      </trkpt>
      <trkpt lat="45.74689" lon="6.56746">
        <ele>1370.9</ele>
        <time>2024-01-08T14:34:40Z</time>
      </trkpt>
      <trkpt lat="45.74692" lon="6.56752">
        <ele>1370.6</ele>
        <time>2024-01-08T14:34:45Z</time>
      </trkpt>
      <trkpt lat="45.74694" lon="6.56759">
        <ele>1370.4</ele>
        <time>2024-01-08T14:34:50Z</time>
      </trkpt>
      <trkpt lat="45.74696" lon="6.56765">
        <ele>1370.3</ele>
        <time>2024-01-08T14:34:55Z</time>
      </trkpt>
      <trkpt lat="45.74694" lon="6.56772">
        <ele>1370.3</ele>
        <time>2024-01-08T14:35:00Z</time>
      </trkpt>
      <trkpt lat="45.74692" lon="6.56778">
        <ele>1370.5</ele>
        <time>2024-01-08T14:35:05Z</time>
      </trkpt>
      <trkpt lat="45.74691" lon="6.56785">
        <ele>1370.7</ele>
        <time>2024-01-08T14:35:10Z</time>
      </trkpt>
      <trkpt lat="45.74688" lon="6.56792">
        <ele>1370.4</ele>
        <time>2024-01-08T14:35:15Z</time>
      </trkpt>
      <trkpt lat="45.74686" lon="6.568">
        <ele>1370</ele>
        <time>2024-01-08T14:35:20Z</time>
      </trkpt>
      <trkpt lat="45.74685" lon="6.56807">
        <ele>1369.7</ele>
        <time>2024-01-08T14:35:25Z</time>
      </trkpt>
      <trkpt lat="45.74682" lon="6.56814">
        <ele>1369.5</ele>
        <time>2024-01-08T14:35:30Z</time>
      </trkpt>
      <trkpt lat="45.74681" lon="6.5682">
        <ele>1369.3</ele>
        <time>2024-01-08T14:35:34Z</time>
      </trkpt>
      <trkpt lat="45.7468" lon="6.56827">
        <ele>1368.9</ele>
        <time>2024-01-08T14:35:38Z</time>
      </trkpt>
      <trkpt lat="45.74681" lon="6.56833">
        <ele>1368.2</ele>
        <time>2024-01-08T14:35:42Z</time>
      </trkpt>
      <trkpt lat="45.74682" lon="6.5684">
        <ele>1367.5</ele>
        <time>2024-01-08T14:35:46Z</time>
      </trkpt>
      <trkpt lat="45.74685" lon="6.56846">
        <ele>1366.8</ele>
        <time>2024-01-08T14:35:50Z</time>
      </trkpt>
      <trkpt lat="45.74687" lon="6.56853">
        <ele>1366.4</ele>
        <time>2024-01-08T14:35:54Z</time>
      </trkpt>
      <trkpt lat="45.74689" lon="6.56858">
        <ele>1365.8</ele>
        <time>2024-01-08T14:35:58Z</time>
      </trkpt>
      <trkpt lat="45.74691" lon="6.56865">
        <ele>1365.2</ele>
        <time>2024-01-08T14:36:03Z</time>
      </trkpt>
      <trkpt lat="45.74693" lon="6.56872">
        <ele>1364.5</ele>
        <time>2024-01-08T14:36:08Z</time>
      </trkpt>
      <trkpt lat="45.74694" lon="6.56879">
        <ele>1364</ele>
        <time>2024-01-08T14:36:13Z</time>
      </trkpt>
      <trkpt lat="45.74695" lon="6.56885">
        <ele>1363.7</ele>
        <time>2024-01-08T14:36:18Z</time>
      </trkpt>
      <trkpt lat="45.74694" lon="6.56892">
        <ele>1363.7</ele>
        <time>2024-01-08T14:36:26Z</time>
      </trkpt>
      <trkpt lat="45.74699" lon="6.56896">
        <ele>1362.3</ele>
        <time>2024-01-08T14:38:28Z</time>
      </trkpt>
      <trkpt lat="45.74704" lon="6.56899">
        <ele>1361.9</ele>
        <time>2024-01-08T14:38:33Z</time>
      </trkpt>
      <trkpt lat="45.74709" lon="6.56901">
        <ele>1361.6</ele>
        <time>2024-01-08T14:38:38Z</time>
      </trkpt>
      <trkpt lat="45.74714" lon="6.56903">
        <ele>1361.6</ele>
        <time>2024-01-08T14:38:42Z</time>
      </trkpt>
      <trkpt lat="45.74718" lon="6.56905">
        <ele>1361.6</ele>
        <time>2024-01-08T14:38:46Z</time>
      </trkpt>
      <trkpt lat="45.74723" lon="6.56907">
        <ele>1361.8</ele>
        <time>2024-01-08T14:38:50Z</time>
      </trkpt>
      <trkpt lat="45.74728" lon="6.56909">
        <ele>1362.1</ele>
        <time>2024-01-08T14:38:55Z</time>
      </trkpt>
      <trkpt lat="45.74733" lon="6.56911">
        <ele>1362.4</ele>
        <time>2024-01-08T14:39:00Z</time>
      </trkpt>
      <trkpt lat="45.74739" lon="6.56913">
        <ele>1362.6</ele>
        <time>2024-01-08T14:39:05Z</time>
      </trkpt>
      <trkpt lat="45.74744" lon="6.56915">
        <ele>1362.8</ele>
        <time>2024-01-08T14:39:10Z</time>
      </trkpt>
      <trkpt lat="45.7475" lon="6.56918">
        <ele>1362.8</ele>
        <time>2024-01-08T14:39:15Z</time>
      </trkpt>
      <trkpt lat="45.74754" lon="6.56919">
        <ele>1363.2</ele>
        <time>2024-01-08T14:39:19Z</time>
      </trkpt>
      <trkpt lat="45.74759" lon="6.56921">
        <ele>1363.7</ele>
        <time>2024-01-08T14:39:23Z</time>
      </trkpt>
      <trkpt lat="45.74765" lon="6.56923">
        <ele>1364.1</ele>
        <time>2024-01-08T14:39:27Z</time>
      </trkpt>
      <trkpt lat="45.7477" lon="6.56926">
        <ele>1364.7</ele>
        <time>2024-01-08T14:39:31Z</time>
      </trkpt>
      <trkpt lat="45.74775" lon="6.56928">
        <ele>1365.2</ele>
        <time>2024-01-08T14:39:35Z</time>
      </trkpt>
      <trkpt lat="45.7478" lon="6.56929">
        <ele>1365.7</ele>
        <time>2024-01-08T14:39:39Z</time>
      </trkpt>
      <trkpt lat="45.74785" lon="6.56931">
        <ele>1366</ele>
        <time>2024-01-08T14:39:43Z</time>
      </trkpt>
      <trkpt lat="45.7479" lon="6.56932">
        <ele>1366.1</ele>
        <time>2024-01-08T14:39:47Z</time>
      </trkpt>
      <trkpt lat="45.74794" lon="6.56935">
        <ele>1366.2</ele>
        <time>2024-01-08T14:39:51Z</time>
      </trkpt>
      <trkpt lat="45.74799" lon="6.56937">
        <ele>1366.7</ele>
        <time>2024-01-08T14:39:55Z</time>
      </trkpt>
      <trkpt lat="45.74803" lon="6.56938">
        <ele>1366.9</ele>
        <time>2024-01-08T14:39:59Z</time>
      </trkpt>
      <trkpt lat="45.74808" lon="6.56938">
        <ele>1367.4</ele>
        <time>2024-01-08T14:40:04Z</time>
      </trkpt>
      <trkpt lat="45.74814" lon="6.5694">
        <ele>1368.3</ele>
        <time>2024-01-08T14:40:09Z</time>
      </trkpt>
      <trkpt lat="45.74819" lon="6.56943">
        <ele>1369</ele>
        <time>2024-01-08T14:40:14Z</time>
      </trkpt>
      <trkpt lat="45.74823" lon="6.56945">
        <ele>1369.6</ele>
        <time>2024-01-08T14:40:18Z</time>
      </trkpt>
      <trkpt lat="45.74827" lon="6.5695">
        <ele>1370.4</ele>
        <time>2024-01-08T14:40:22Z</time>
      </trkpt>
      <trkpt lat="45.7483" lon="6.56955">
        <ele>1371.3</ele>
        <time>2024-01-08T14:40:26Z</time>
      </trkpt>
      <trkpt lat="45.74833" lon="6.56962">
        <ele>1372.2</ele>
        <time>2024-01-08T14:40:30Z</time>
      </trkpt>
      <trkpt lat="45.74835" lon="6.56968">
        <ele>1372.9</ele>
        <time>2024-01-08T14:40:34Z</time>
      </trkpt>
      <trkpt lat="45.74838" lon="6.56975">
        <ele>1373.6</ele>
        <time>2024-01-08T14:40:38Z</time>
      </trkpt>
      <trkpt lat="45.7484" lon="6.56981">
        <ele>1373.7</ele>
        <time>2024-01-08T14:40:42Z</time>
      </trkpt>
      <trkpt lat="45.74843" lon="6.56987">
        <ele>1373.9</ele>
        <time>2024-01-08T14:40:46Z</time>
      </trkpt>
      <trkpt lat="45.74846" lon="6.56993">
        <ele>1373.8</ele>
        <time>2024-01-08T14:40:50Z</time>
      </trkpt>
      <trkpt lat="45.74848" lon="6.56999">
        <ele>1373.8</ele>
        <time>2024-01-08T14:40:54Z</time>
      </trkpt>
      <trkpt lat="45.74851" lon="6.57005">
        <ele>1373.9</ele>
        <time>2024-01-08T14:40:58Z</time>
      </trkpt>
      <trkpt lat="45.74854" lon="6.57011">
        <ele>1373.7</ele>
        <time>2024-01-08T14:41:02Z</time>
      </trkpt>
      <trkpt lat="45.74857" lon="6.57017">
        <ele>1373.8</ele>
        <time>2024-01-08T14:41:06Z</time>
      </trkpt>
      <trkpt lat="45.7486" lon="6.57023">
        <ele>1373.7</ele>
        <time>2024-01-08T14:41:10Z</time>
      </trkpt>
      <trkpt lat="45.74864" lon="6.57028">
        <ele>1373.7</ele>
        <time>2024-01-08T14:41:14Z</time>
      </trkpt>
      <trkpt lat="45.74867" lon="6.57033">
        <ele>1373.8</ele>
        <time>2024-01-08T14:41:18Z</time>
      </trkpt>
      <trkpt lat="45.74871" lon="6.57038">
        <ele>1373.8</ele>
        <time>2024-01-08T14:41:22Z</time>
      </trkpt>
      <trkpt lat="45.74874" lon="6.57043">
        <ele>1373.8</ele>
        <time>2024-01-08T14:41:26Z</time>
      </trkpt>
      <trkpt lat="45.74878" lon="6.57048">
        <ele>1373.8</ele>
        <time>2024-01-08T14:41:30Z</time>
      </trkpt>
      <trkpt lat="45.74882" lon="6.57053">
        <ele>1373.6</ele>
        <time>2024-01-08T14:41:34Z</time>
      </trkpt>
      <trkpt lat="45.74885" lon="6.57058">
        <ele>1373.4</ele>
        <time>2024-01-08T14:41:38Z</time>
      </trkpt>
      <trkpt lat="45.74888" lon="6.57064">
        <ele>1373.3</ele>
        <time>2024-01-08T14:41:42Z</time>
      </trkpt>
      <trkpt lat="45.74891" lon="6.5707">
        <ele>1373.4</ele>
        <time>2024-01-08T14:41:46Z</time>
      </trkpt>
      <trkpt lat="45.74895" lon="6.57075">
        <ele>1373.4</ele>
        <time>2024-01-08T14:41:50Z</time>
      </trkpt>
      <trkpt lat="45.74898" lon="6.57081">
        <ele>1373.5</ele>
        <time>2024-01-08T14:41:54Z</time>
      </trkpt>
      <trkpt lat="45.74901" lon="6.57087">
        <ele>1373.4</ele>
        <time>2024-01-08T14:41:58Z</time>
      </trkpt>
      <trkpt lat="45.74904" lon="6.57093">
        <ele>1373.3</ele>
        <time>2024-01-08T14:42:02Z</time>
      </trkpt>
      <trkpt lat="45.74906" lon="6.57099">
        <ele>1373.1</ele>
        <time>2024-01-08T14:42:06Z</time>
      </trkpt>
      <trkpt lat="45.74909" lon="6.57105">
        <ele>1372.9</ele>
        <time>2024-01-08T14:42:10Z</time>
      </trkpt>
      <trkpt lat="45.74911" lon="6.57112">
        <ele>1372.5</ele>
        <time>2024-01-08T14:42:14Z</time>
      </trkpt>
      <trkpt lat="45.74914" lon="6.57118">
        <ele>1372.2</ele>
        <time>2024-01-08T14:42:18Z</time>
      </trkpt>
      <trkpt lat="45.74916" lon="6.57125">
        <ele>1372.3</ele>
        <time>2024-01-08T14:42:22Z</time>
      </trkpt>
      <trkpt lat="45.74919" lon="6.57131">
        <ele>1372.4</ele>
        <time>2024-01-08T14:42:26Z</time>
      </trkpt>
      <trkpt lat="45.74923" lon="6.57137">
        <ele>1372.2</ele>
        <time>2024-01-08T14:42:30Z</time>
      </trkpt>
      <trkpt lat="45.74927" lon="6.57142">
        <ele>1372</ele>
        <time>2024-01-08T14:42:34Z</time>
      </trkpt>
      <trkpt lat="45.74931" lon="6.57147">
        <ele>1371.8</ele>
        <time>2024-01-08T14:42:38Z</time>
      </trkpt>
      <trkpt lat="45.74935" lon="6.57151">
        <ele>1371.5</ele>
        <time>2024-01-08T14:42:42Z</time>
      </trkpt>
      <trkpt lat="45.74939" lon="6.57156">
        <ele>1371.4</ele>
        <time>2024-01-08T14:42:46Z</time>
      </trkpt>
      <trkpt lat="45.74942" lon="6.57161">
        <ele>1370.8</ele>
        <time>2024-01-08T14:42:50Z</time>
      </trkpt>
      <trkpt lat="45.74945" lon="6.57166">
        <ele>1370.5</ele>
        <time>2024-01-08T14:42:54Z</time>
      </trkpt>
      <trkpt lat="45.74948" lon="6.57171">
        <ele>1370</ele>
        <time>2024-01-08T14:42:58Z</time>
      </trkpt>
      <trkpt lat="45.74951" lon="6.57177">
        <ele>1369.7</ele>
        <time>2024-01-08T14:43:02Z</time>
      </trkpt>
      <trkpt lat="45.74953" lon="6.57183">
        <ele>1369.6</ele>
        <time>2024-01-08T14:43:06Z</time>
      </trkpt>
      <trkpt lat="45.74953" lon="6.5719">
        <ele>1370.5</ele>
        <time>2024-01-08T14:43:11Z</time>
      </trkpt>
      <trkpt lat="45.74949" lon="6.57194">
        <ele>1372.1</ele>
        <time>2024-01-08T14:43:16Z</time>
      </trkpt>
      <trkpt lat="45.74946" lon="6.57199">
        <ele>1372.2</ele>
        <time>2024-01-08T14:43:24Z</time>
      </trkpt>
      <trkpt lat="45.74947" lon="6.57206">
        <ele>1370.8</ele>
        <time>2024-01-08T14:43:30Z</time>
      </trkpt>
      <trkpt lat="45.74948" lon="6.57213">
        <ele>1369.1</ele>
        <time>2024-01-08T14:43:36Z</time>
      </trkpt>
      <trkpt lat="45.7495" lon="6.57219">
        <ele>1367.4</ele>
        <time>2024-01-08T14:43:41Z</time>
      </trkpt>
      <trkpt lat="45.74952" lon="6.57225">
        <ele>1366.5</ele>
        <time>2024-01-08T14:43:45Z</time>
      </trkpt>
      <trkpt lat="45.74954" lon="6.57231">
        <ele>1365.7</ele>
        <time>2024-01-08T14:43:49Z</time>
      </trkpt>
      <trkpt lat="45.74957" lon="6.57237">
        <ele>1364.2</ele>
        <time>2024-01-08T14:43:54Z</time>
      </trkpt>
      <trkpt lat="45.7496" lon="6.57243">
        <ele>1362.2</ele>
        <time>2024-01-08T14:44:00Z</time>
      </trkpt>
      <trkpt lat="45.74964" lon="6.57248">
        <ele>1361.1</ele>
        <time>2024-01-08T14:44:05Z</time>
      </trkpt>
      <trkpt lat="45.74968" lon="6.57252">
        <ele>1360.5</ele>
        <time>2024-01-08T14:44:10Z</time>
      </trkpt>
      <trkpt lat="45.7497" lon="6.57258">
        <ele>1360.5</ele>
        <time>2024-01-08T14:44:15Z</time>
      </trkpt>
      <trkpt lat="45.74972" lon="6.57263">
        <ele>1360.3</ele>
        <time>2024-01-08T14:44:21Z</time>
      </trkpt>
      <trkpt lat="45.74974" lon="6.57269">
        <ele>1360.8</ele>
        <time>2024-01-08T14:44:29Z</time>
      </trkpt>
      <trkpt lat="45.74977" lon="6.57275">
        <ele>1362</ele>
        <time>2024-01-08T14:44:36Z</time>
      </trkpt>
      <trkpt lat="45.74977" lon="6.57282">
        <ele>1361</ele>
        <time>2024-01-08T14:44:43Z</time>
      </trkpt>
      <trkpt lat="45.7498" lon="6.57288">
        <ele>1360.6</ele>
        <time>2024-01-08T14:44:48Z</time>
      </trkpt>
      <trkpt lat="45.74984" lon="6.57291">
        <ele>1359.2</ele>
        <time>2024-01-08T14:44:55Z</time>
      </trkpt>
      <trkpt lat="45.74986" lon="6.57297">
        <ele>1357.9</ele>
        <time>2024-01-08T14:45:02Z</time>
      </trkpt>
      <trkpt lat="45.7499" lon="6.57301">
        <ele>1355.4</ele>
        <time>2024-01-08T14:45:09Z</time>
      </trkpt>
      <trkpt lat="45.74995" lon="6.57303">
        <ele>1353.9</ele>
        <time>2024-01-08T14:45:14Z</time>
      </trkpt>
      <trkpt lat="45.74998" lon="6.57308">
        <ele>1353.5</ele>
        <time>2024-01-08T14:45:20Z</time>
      </trkpt>
      <trkpt lat="45.75003" lon="6.5731">
        <ele>1352.5</ele>
        <time>2024-01-08T14:46:01Z</time>
      </trkpt>
      <trkpt lat="45.75008" lon="6.57313">
        <ele>1352.2</ele>
        <time>2024-01-08T14:46:06Z</time>
      </trkpt>
      <trkpt lat="45.75011" lon="6.57319">
        <ele>1351.5</ele>
        <time>2024-01-08T14:46:11Z</time>
      </trkpt>
      <trkpt lat="45.75015" lon="6.57323">
        <ele>1350.2</ele>
        <time>2024-01-08T14:46:16Z</time>
      </trkpt>
      <trkpt lat="45.75019" lon="6.57327">
        <ele>1348.9</ele>
        <time>2024-01-08T14:46:21Z</time>
      </trkpt>
      <trkpt lat="45.75022" lon="6.57332">
        <ele>1347.5</ele>
        <time>2024-01-08T14:46:26Z</time>
      </trkpt>
      <trkpt lat="45.75026" lon="6.57338">
        <ele>1346.1</ele>
        <time>2024-01-08T14:46:31Z</time>
      </trkpt>
      <trkpt lat="45.7503" lon="6.57342">
        <ele>1344.4</ele>
        <time>2024-01-08T14:46:36Z</time>
      </trkpt>
      <trkpt lat="45.75034" lon="6.57346">
        <ele>1343</ele>
        <time>2024-01-08T14:46:41Z</time>
      </trkpt>
      <trkpt lat="45.75038" lon="6.5735">
        <ele>1341.8</ele>
        <time>2024-01-08T14:46:46Z</time>
      </trkpt>
      <trkpt lat="45.75042" lon="6.57355">
        <ele>1340.8</ele>
        <time>2024-01-08T14:46:51Z</time>
      </trkpt>
      <trkpt lat="45.75045" lon="6.5736">
        <ele>1340.3</ele>
        <time>2024-01-08T14:46:55Z</time>
      </trkpt>
      <trkpt lat="45.75048" lon="6.57365">
        <ele>1340.4</ele>
        <time>2024-01-08T14:47:00Z</time>
      </trkpt>
      <trkpt lat="45.75051" lon="6.5737">
        <ele>1339.6</ele>
        <time>2024-01-08T14:47:05Z</time>
      </trkpt>
      <trkpt lat="45.75053" lon="6.57375">
        <ele>1338.9</ele>
        <time>2024-01-08T14:47:10Z</time>
      </trkpt>
      <trkpt lat="45.75057" lon="6.5738">
        <ele>1337.5</ele>
        <time>2024-01-08T14:47:16Z</time>
      </trkpt>
      <trkpt lat="45.75058" lon="6.57387">
        <ele>1335</ele>
        <time>2024-01-08T14:47:22Z</time>
      </trkpt>
      <trkpt lat="45.75059" lon="6.57394">
        <ele>1333.8</ele>
        <time>2024-01-08T14:47:29Z</time>
      </trkpt>
      <trkpt lat="45.75061" lon="6.574">
        <ele>1332.9</ele>
        <time>2024-01-08T14:47:35Z</time>
      </trkpt>
      <trkpt lat="45.75064" lon="6.57405">
        <ele>1331</ele>
        <time>2024-01-08T14:47:41Z</time>
      </trkpt>
      <trkpt lat="45.75069" lon="6.57408">
        <ele>1329.3</ele>
        <time>2024-01-08T14:47:47Z</time>
      </trkpt>
      <trkpt lat="45.7507" lon="6.57414">
        <ele>1327.8</ele>
        <time>2024-01-08T14:47:53Z</time>
      </trkpt>
      <trkpt lat="45.75074" lon="6.57419">
        <ele>1326.9</ele>
        <time>2024-01-08T14:47:58Z</time>
      </trkpt>
      <trkpt lat="45.75078" lon="6.57422">
        <ele>1326.7</ele>
        <time>2024-01-08T14:48:04Z</time>
      </trkpt>
      <trkpt lat="45.75079" lon="6.57429">
        <ele>1325.5</ele>
        <time>2024-01-08T14:48:11Z</time>
      </trkpt>
      <trkpt lat="45.75083" lon="6.57434">
        <ele>1324.2</ele>
        <time>2024-01-08T14:48:17Z</time>
      </trkpt>
      <trkpt lat="45.75088" lon="6.57434">
        <ele>1322.5</ele>
        <time>2024-01-08T14:48:23Z</time>
      </trkpt>
      <trkpt lat="45.7509" lon="6.57441">
        <ele>1320.9</ele>
        <time>2024-01-08T14:48:34Z</time>
      </trkpt>
      <trkpt lat="45.75093" lon="6.57447">
        <ele>1321.3</ele>
        <time>2024-01-08T14:48:40Z</time>
      </trkpt>
      <trkpt lat="45.75095" lon="6.57453">
        <ele>1321.5</ele>
        <time>2024-01-08T14:48:44Z</time>
      </trkpt>
      <trkpt lat="45.75097" lon="6.5746">
        <ele>1320.9</ele>
        <time>2024-01-08T14:48:49Z</time>
      </trkpt>
      <trkpt lat="45.751" lon="6.57464">
        <ele>1320.6</ele>
        <time>2024-01-08T14:48:54Z</time>
      </trkpt>
      <trkpt lat="45.75104" lon="6.57468">
        <ele>1319.4</ele>
        <time>2024-01-08T14:49:00Z</time>
      </trkpt>
      <trkpt lat="45.75107" lon="6.57474">
        <ele>1315.8</ele>
        <time>2024-01-08T14:49:10Z</time>
      </trkpt>
      <trkpt lat="45.75111" lon="6.57474">
        <ele>1314.3</ele>
        <time>2024-01-08T14:49:16Z</time>
      </trkpt>
      <trkpt lat="45.75107" lon="6.57477">
        <ele>1310</ele>
        <time>2024-01-08T14:49:27Z</time>
      </trkpt>
      <trkpt lat="45.75101" lon="6.57476">
        <ele>1308.2</ele>
        <time>2024-01-08T14:49:32Z</time>
      </trkpt>
      <trkpt lat="45.75097" lon="6.57476">
        <ele>1306.8</ele>
        <time>2024-01-08T14:49:36Z</time>
      </trkpt>
      <trkpt lat="45.75091" lon="6.57478">
        <ele>1305.3</ele>
        <time>2024-01-08T14:49:41Z</time>
      </trkpt>
      <trkpt lat="45.75087" lon="6.57477">
        <ele>1303.4</ele>
        <time>2024-01-08T14:49:46Z</time>
      </trkpt>
      <trkpt lat="45.75082" lon="6.57476">
        <ele>1301.9</ele>
        <time>2024-01-08T14:49:51Z</time>
      </trkpt>
      <trkpt lat="45.75077" lon="6.57475">
        <ele>1300.6</ele>
        <time>2024-01-08T14:49:56Z</time>
      </trkpt>
      <trkpt lat="45.75072" lon="6.57473">
        <ele>1299.4</ele>
        <time>2024-01-08T14:50:01Z</time>
      </trkpt>
      <trkpt lat="45.75067" lon="6.57472">
        <ele>1298.5</ele>
        <time>2024-01-08T14:50:06Z</time>
      </trkpt>
      <trkpt lat="45.75063" lon="6.57469">
        <ele>1297.4</ele>
        <time>2024-01-08T14:50:11Z</time>
      </trkpt>
      <trkpt lat="45.75058" lon="6.57467">
        <ele>1296.9</ele>
        <time>2024-01-08T14:50:16Z</time>
      </trkpt>
      <trkpt lat="45.75054" lon="6.57464">
        <ele>1295.8</ele>
        <time>2024-01-08T14:50:21Z</time>
      </trkpt>
      <trkpt lat="45.75049" lon="6.57462">
        <ele>1294.4</ele>
        <time>2024-01-08T14:50:26Z</time>
      </trkpt>
      <trkpt lat="45.75049" lon="6.57469">
        <ele>1291.2</ele>
        <time>2024-01-08T14:50:34Z</time>
      </trkpt>
      <trkpt lat="45.75051" lon="6.57475">
        <ele>1289.7</ele>
        <time>2024-01-08T14:50:39Z</time>
      </trkpt>
      <trkpt lat="45.75054" lon="6.57481">
        <ele>1287.8</ele>
        <time>2024-01-08T14:50:44Z</time>
      </trkpt>
      <trkpt lat="45.75057" lon="6.57487">
        <ele>1286</ele>
        <time>2024-01-08T14:50:49Z</time>
      </trkpt>
      <trkpt lat="45.75055" lon="6.57493">
        <ele>1285</ele>
        <time>2024-01-08T14:50:56Z</time>
      </trkpt>
      <trkpt lat="45.7505" lon="6.57491">
        <ele>1285.1</ele>
        <time>2024-01-08T14:51:01Z</time>
      </trkpt>
      <trkpt lat="45.75046" lon="6.57489">
        <ele>1285</ele>
        <time>2024-01-08T14:51:06Z</time>
      </trkpt>
      <trkpt lat="45.75041" lon="6.57487">
        <ele>1285</ele>
        <time>2024-01-08T14:51:11Z</time>
      </trkpt>
      <trkpt lat="45.75036" lon="6.57486">
        <ele>1285</ele>
        <time>2024-01-08T14:51:16Z</time>
      </trkpt>
      <trkpt lat="45.75032" lon="6.57484">
        <ele>1284.5</ele>
        <time>2024-01-08T14:51:21Z</time>
      </trkpt>
      <trkpt lat="45.75027" lon="6.57483">
        <ele>1284.5</ele>
        <time>2024-01-08T14:51:26Z</time>
      </trkpt>
      <trkpt lat="45.75022" lon="6.57481">
        <ele>1284.2</ele>
        <time>2024-01-08T14:51:31Z</time>
      </trkpt>
      <trkpt lat="45.75017" lon="6.5748">
        <ele>1283.6</ele>
        <time>2024-01-08T14:51:35Z</time>
      </trkpt>
      <trkpt lat="45.75013" lon="6.57479">
        <ele>1282.5</ele>
        <time>2024-01-08T14:51:40Z</time>
      </trkpt>
      <trkpt lat="45.75008" lon="6.57476">
        <ele>1281.2</ele>
        <time>2024-01-08T14:51:45Z</time>
      </trkpt>
      <trkpt lat="45.75003" lon="6.57475">
        <ele>1279.9</ele>
        <time>2024-01-08T14:51:50Z</time>
      </trkpt>
      <trkpt lat="45.74999" lon="6.57478">
        <ele>1279.2</ele>
        <time>2024-01-08T14:51:56Z</time>
      </trkpt>
      <trkpt lat="45.74994" lon="6.57476">
        <ele>1278.3</ele>
        <time>2024-01-08T14:52:01Z</time>
      </trkpt>
      <trkpt lat="45.74988" lon="6.57475">
        <ele>1277.9</ele>
        <time>2024-01-08T14:52:06Z</time>
      </trkpt>
      <trkpt lat="45.74984" lon="6.57474">
        <ele>1277</ele>
        <time>2024-01-08T14:52:10Z</time>
      </trkpt>
      <trkpt lat="45.74978" lon="6.57474">
        <ele>1276.3</ele>
        <time>2024-01-08T14:52:15Z</time>
      </trkpt>
      <trkpt lat="45.74973" lon="6.57473">
        <ele>1275.5</ele>
        <time>2024-01-08T14:52:20Z</time>
      </trkpt>
      <trkpt lat="45.74968" lon="6.57471">
        <ele>1274.5</ele>
        <time>2024-01-08T14:52:25Z</time>
      </trkpt>
      <trkpt lat="45.74964" lon="6.57467">
        <ele>1273.4</ele>
        <time>2024-01-08T14:52:30Z</time>
      </trkpt>
      <trkpt lat="45.74959" lon="6.57464">
        <ele>1273</ele>
        <time>2024-01-08T14:52:35Z</time>
      </trkpt>
      <trkpt lat="45.74957" lon="6.5747">
        <ele>1272.1</ele>
        <time>2024-01-08T14:52:43Z</time>
      </trkpt>
      <trkpt lat="45.7496" lon="6.57476">
        <ele>1271.2</ele>
        <time>2024-01-08T14:52:48Z</time>
      </trkpt>
      <trkpt lat="45.74963" lon="6.57481">
        <ele>1270.4</ele>
        <time>2024-01-08T14:52:52Z</time>
      </trkpt>
      <trkpt lat="45.74967" lon="6.57486">
        <ele>1269.4</ele>
        <time>2024-01-08T14:52:56Z</time>
      </trkpt>
      <trkpt lat="45.74971" lon="6.5749">
        <ele>1268.6</ele>
        <time>2024-01-08T14:53:00Z</time>
      </trkpt>
      <trkpt lat="45.74976" lon="6.57493">
        <ele>1267.7</ele>
        <time>2024-01-08T14:53:05Z</time>
      </trkpt>
      <trkpt lat="45.74977" lon="6.57499">
        <ele>1267.3</ele>
        <time>2024-01-08T14:53:12Z</time>
      </trkpt>
      <trkpt lat="45.74971" lon="6.575">
        <ele>1267.6</ele>
        <time>2024-01-08T14:53:18Z</time>
      </trkpt>
      <trkpt lat="45.74967" lon="6.57498">
        <ele>1267.7</ele>
        <time>2024-01-08T14:53:23Z</time>
      </trkpt>
      <trkpt lat="45.74962" lon="6.57496">
        <ele>1267.7</ele>
        <time>2024-01-08T14:53:28Z</time>
      </trkpt>
      <trkpt lat="45.74957" lon="6.57493">
        <ele>1267</ele>
        <time>2024-01-08T14:53:33Z</time>
      </trkpt>
      <trkpt lat="45.74953" lon="6.57491">
        <ele>1266.6</ele>
        <time>2024-01-08T14:53:38Z</time>
      </trkpt>
      <trkpt lat="45.74949" lon="6.57487">
        <ele>1266</ele>
        <time>2024-01-08T14:53:43Z</time>
      </trkpt>
      <trkpt lat="45.74944" lon="6.57486">
        <ele>1266.5</ele>
        <time>2024-01-08T14:53:49Z</time>
      </trkpt>
      <trkpt lat="45.74947" lon="6.57492">
        <ele>1262.8</ele>
        <time>2024-01-08T14:55:00Z</time>
      </trkpt>
      <trkpt lat="45.7495" lon="6.57497">
        <ele>1261.8</ele>
        <time>2024-01-08T14:55:04Z</time>
      </trkpt>
      <trkpt lat="45.74954" lon="6.57499">
        <ele>1258.2</ele>
        <time>2024-01-08T14:55:13Z</time>
      </trkpt>
      <trkpt lat="45.74957" lon="6.57504">
        <ele>1255.8</ele>
        <time>2024-01-08T14:55:20Z</time>
      </trkpt>
      <trkpt lat="45.74958" lon="6.57511">
        <ele>1253.4</ele>
        <time>2024-01-08T14:55:26Z</time>
      </trkpt>
      <trkpt lat="45.7496" lon="6.57517">
        <ele>1252.2</ele>
        <time>2024-01-08T14:55:31Z</time>
      </trkpt>
      <trkpt lat="45.7496" lon="6.57524">
        <ele>1250.8</ele>
        <time>2024-01-08T14:55:37Z</time>
      </trkpt>
      <trkpt lat="45.7496" lon="6.5753">
        <ele>1249.1</ele>
        <time>2024-01-08T14:55:45Z</time>
      </trkpt>
      <trkpt lat="45.74955" lon="6.57534">
        <ele>1247.8</ele>
        <time>2024-01-08T14:55:52Z</time>
      </trkpt>
      <trkpt lat="45.74951" lon="6.57536">
        <ele>1246.5</ele>
        <time>2024-01-08T14:55:58Z</time>
      </trkpt>
      <trkpt lat="45.74946" lon="6.57535">
        <ele>1246</ele>
        <time>2024-01-08T14:56:05Z</time>
      </trkpt>
      <trkpt lat="45.74946" lon="6.57542">
        <ele>1243.7</ele>
        <time>2024-01-08T14:56:16Z</time>
      </trkpt>
      <trkpt lat="45.7495" lon="6.57548">
        <ele>1242.3</ele>
        <time>2024-01-08T14:56:22Z</time>
      </trkpt>
      <trkpt lat="45.74951" lon="6.57554">
        <ele>1240.7</ele>
        <time>2024-01-08T14:56:28Z</time>
      </trkpt>
      <trkpt lat="45.74947" lon="6.57557">
        <ele>1238.7</ele>
        <time>2024-01-08T14:56:36Z</time>
      </trkpt>
      <trkpt lat="45.74943" lon="6.5756">
        <ele>1237.1</ele>
        <time>2024-01-08T14:56:42Z</time>
      </trkpt>
      <trkpt lat="45.74939" lon="6.57562">
        <ele>1236</ele>
        <time>2024-01-08T14:56:47Z</time>
      </trkpt>
      <trkpt lat="45.74934" lon="6.57564">
        <ele>1234.9</ele>
        <time>2024-01-08T14:56:53Z</time>
      </trkpt>
      <trkpt lat="45.7493" lon="6.57567">
        <ele>1232.6</ele>
        <time>2024-01-08T14:57:01Z</time>
      </trkpt>
      <trkpt lat="45.74928" lon="6.57573">
        <ele>1230.3</ele>
        <time>2024-01-08T14:57:08Z</time>
      </trkpt>
      <trkpt lat="45.74923" lon="6.57576">
        <ele>1228.3</ele>
        <time>2024-01-08T14:57:15Z</time>
      </trkpt>
      <trkpt lat="45.74918" lon="6.57576">
        <ele>1226.9</ele>
        <time>2024-01-08T14:57:21Z</time>
      </trkpt>
      <trkpt lat="45.74913" lon="6.57578">
        <ele>1225.1</ele>
        <time>2024-01-08T14:57:27Z</time>
      </trkpt>
      <trkpt lat="45.74908" lon="6.57579">
        <ele>1224.1</ele>
        <time>2024-01-08T14:57:32Z</time>
      </trkpt>
      <trkpt lat="45.74903" lon="6.57579">
        <ele>1223.5</ele>
        <time>2024-01-08T14:57:37Z</time>
      </trkpt>
      <trkpt lat="45.74898" lon="6.57578">
        <ele>1222.9</ele>
        <time>2024-01-08T14:57:42Z</time>
      </trkpt>
      <trkpt lat="45.74894" lon="6.57577">
        <ele>1222.3</ele>
        <time>2024-01-08T14:57:47Z</time>
      </trkpt>
      <trkpt lat="45.74889" lon="6.57574">
        <ele>1221</ele>
        <time>2024-01-08T14:57:53Z</time>
      </trkpt>
      <trkpt lat="45.74884" lon="6.57572">
        <ele>1220.1</ele>
        <time>2024-01-08T14:57:59Z</time>
      </trkpt>
      <trkpt lat="45.7488" lon="6.57571">
        <ele>1219.2</ele>
        <time>2024-01-08T14:58:06Z</time>
      </trkpt>
      <trkpt lat="45.74878" lon="6.57578">
        <ele>1216.4</ele>
        <time>2024-01-08T14:58:16Z</time>
      </trkpt>
      <trkpt lat="45.7488" lon="6.57584">
        <ele>1214.8</ele>
        <time>2024-01-08T14:58:22Z</time>
      </trkpt>
      <trkpt lat="45.74879" lon="6.57591">
        <ele>1212.8</ele>
        <time>2024-01-08T14:58:30Z</time>
      </trkpt>
      <trkpt lat="45.74877" lon="6.57597">
        <ele>1211.3</ele>
        <time>2024-01-08T14:58:40Z</time>
      </trkpt>
      <trkpt lat="45.74874" lon="6.57603">
        <ele>1209.2</ele>
        <time>2024-01-08T14:59:02Z</time>
      </trkpt>
      <trkpt lat="45.74871" lon="6.57607">
        <ele>1207.9</ele>
        <time>2024-01-08T14:59:15Z</time>
      </trkpt>
      <trkpt lat="45.74867" lon="6.57609">
        <ele>1206.1</ele>
        <time>2024-01-08T14:59:24Z</time>
      </trkpt>
      <trkpt lat="45.74865" lon="6.57616">
        <ele>1204</ele>
        <time>2024-01-08T14:59:31Z</time>
      </trkpt>
      <trkpt lat="45.74861" lon="6.5762">
        <ele>1202</ele>
        <time>2024-01-08T14:59:37Z</time>
      </trkpt>
      <trkpt lat="45.74857" lon="6.57623">
        <ele>1200.4</ele>
        <time>2024-01-08T14:59:42Z</time>
      </trkpt>
      <trkpt lat="45.74852" lon="6.57623">
        <ele>1198.9</ele>
        <time>2024-01-08T14:59:47Z</time>
      </trkpt>
      <trkpt lat="45.74847" lon="6.57623">
        <ele>1197.6</ele>
        <time>2024-01-08T14:59:52Z</time>
      </trkpt>
      <trkpt lat="45.74842" lon="6.57622">
        <ele>1196.4</ele>
        <time>2024-01-08T14:59:57Z</time>
      </trkpt>
      <trkpt lat="45.74837" lon="6.5762">
        <ele>1195.4</ele>
        <time>2024-01-08T15:00:02Z</time>
      </trkpt>
      <trkpt lat="45.74832" lon="6.57618">
        <ele>1194.7</ele>
        <time>2024-01-08T15:00:07Z</time>
      </trkpt>
      <trkpt lat="45.74828" lon="6.57617">
        <ele>1194.3</ele>
        <time>2024-01-08T15:00:12Z</time>
      </trkpt>
      <trkpt lat="45.74823" lon="6.57619">
        <ele>1192.6</ele>
        <time>2024-01-08T15:00:18Z</time>
      </trkpt>
      <trkpt lat="45.74819" lon="6.57623">
        <ele>1190.9</ele>
        <time>2024-01-08T15:00:24Z</time>
      </trkpt>
      <trkpt lat="45.74814" lon="6.57627">
        <ele>1189.3</ele>
        <time>2024-01-08T15:00:30Z</time>
      </trkpt>
      <trkpt lat="45.74811" lon="6.57633">
        <ele>1187</ele>
        <time>2024-01-08T15:00:37Z</time>
      </trkpt>
      <trkpt lat="45.74808" lon="6.57638">
        <ele>1185.2</ele>
        <time>2024-01-08T15:00:44Z</time>
      </trkpt>
      <trkpt lat="45.74807" lon="6.57645">
        <ele>1183.1</ele>
        <time>2024-01-08T15:00:51Z</time>
      </trkpt>
      <trkpt lat="45.74806" lon="6.57652">
        <ele>1181</ele>
        <time>2024-01-08T15:01:01Z</time>
      </trkpt>
      <trkpt lat="45.74805" lon="6.57659">
        <ele>1179.6</ele>
        <time>2024-01-08T15:01:07Z</time>
      </trkpt>
      <trkpt lat="45.74804" lon="6.57666">
        <ele>1178.3</ele>
        <time>2024-01-08T15:01:13Z</time>
      </trkpt>
      <trkpt lat="45.74804" lon="6.57673">
        <ele>1177.2</ele>
        <time>2024-01-08T15:01:19Z</time>
      </trkpt>
      <trkpt lat="45.74802" lon="6.5768">
        <ele>1175.7</ele>
        <time>2024-01-08T15:01:25Z</time>
      </trkpt>
      <trkpt lat="45.748" lon="6.57687">
        <ele>1174.2</ele>
        <time>2024-01-08T15:01:31Z</time>
      </trkpt>
      <trkpt lat="45.74797" lon="6.57693">
        <ele>1173.1</ele>
        <time>2024-01-08T15:01:40Z</time>
      </trkpt>
      <trkpt lat="45.74795" lon="6.57699">
        <ele>1171.9</ele>
        <time>2024-01-08T15:01:46Z</time>
      </trkpt>
      <trkpt lat="45.74794" lon="6.57707">
        <ele>1170.5</ele>
        <time>2024-01-08T15:01:52Z</time>
      </trkpt>
      <trkpt lat="45.74793" lon="6.57714">
        <ele>1168.7</ele>
        <time>2024-01-08T15:01:58Z</time>
      </trkpt>
      <trkpt lat="45.7479" lon="6.5772">
        <ele>1167.4</ele>
        <time>2024-01-08T15:02:04Z</time>
      </trkpt>
      <trkpt lat="45.74787" lon="6.57726">
        <ele>1165.9</ele>
        <time>2024-01-08T15:02:10Z</time>
      </trkpt>
      <trkpt lat="45.74785" lon="6.57731">
        <ele>1164.7</ele>
        <time>2024-01-08T15:02:14Z</time>
      </trkpt>
      <trkpt lat="45.74781" lon="6.57735">
        <ele>1164.1</ele>
        <time>2024-01-08T15:02:18Z</time>
      </trkpt>
      <trkpt lat="45.74776" lon="6.57736">
        <ele>1163.4</ele>
        <time>2024-01-08T15:02:24Z</time>
      </trkpt>
      <trkpt lat="45.74772" lon="6.57738">
        <ele>1162.8</ele>
        <time>2024-01-08T15:02:30Z</time>
      </trkpt>
      <trkpt lat="45.74768" lon="6.57742">
        <ele>1161.8</ele>
        <time>2024-01-08T15:02:39Z</time>
      </trkpt>
      <trkpt lat="45.74767" lon="6.57749">
        <ele>1160.6</ele>
        <time>2024-01-08T15:02:45Z</time>
      </trkpt>
      <trkpt lat="45.74769" lon="6.57757">
        <ele>1159</ele>
        <time>2024-01-08T15:02:51Z</time>
      </trkpt>
      <trkpt lat="45.7477" lon="6.57763">
        <ele>1157.7</ele>
        <time>2024-01-08T15:02:56Z</time>
      </trkpt>
      <trkpt lat="45.7477" lon="6.57771">
        <ele>1156.2</ele>
        <time>2024-01-08T15:03:01Z</time>
      </trkpt>
      <trkpt lat="45.7477" lon="6.57778">
        <ele>1155.1</ele>
        <time>2024-01-08T15:03:06Z</time>
      </trkpt>
      <trkpt lat="45.74771" lon="6.57785">
        <ele>1154.2</ele>
        <time>2024-01-08T15:03:10Z</time>
      </trkpt>
      <trkpt lat="45.74773" lon="6.57792">
        <ele>1153.5</ele>
        <time>2024-01-08T15:03:15Z</time>
      </trkpt>
      <trkpt lat="45.74774" lon="6.57799">
        <ele>1152.5</ele>
        <time>2024-01-08T15:03:20Z</time>
      </trkpt>
      <trkpt lat="45.74774" lon="6.57806">
        <ele>1152.3</ele>
        <time>2024-01-08T15:03:25Z</time>
      </trkpt>
      <trkpt lat="45.74776" lon="6.57813">
        <ele>1152.5</ele>
        <time>2024-01-08T15:03:36Z</time>
      </trkpt>
      <trkpt lat="45.74776" lon="6.5782">
        <ele>1154.3</ele>
        <time>2024-01-08T15:03:39Z</time>
      </trkpt>
      <trkpt lat="45.74779" lon="6.57827">
        <ele>1155.1</ele>
        <time>2024-01-08T15:03:42Z</time>
      </trkpt>
      <trkpt lat="45.74782" lon="6.57833">
        <ele>1155.1</ele>
        <time>2024-01-08T15:03:46Z</time>
      </trkpt>
      <trkpt lat="45.74785" lon="6.57839">
        <ele>1154.2</ele>
        <time>2024-01-08T15:03:51Z</time>
      </trkpt>
      <trkpt lat="45.74789" lon="6.57845">
        <ele>1153.4</ele>
        <time>2024-01-08T15:03:56Z</time>
      </trkpt>
      <trkpt lat="45.74793" lon="6.5785">
        <ele>1152.8</ele>
        <time>2024-01-08T15:04:00Z</time>
      </trkpt>
      <trkpt lat="45.74796" lon="6.57854">
        <ele>1152.9</ele>
        <time>2024-01-08T15:04:03Z</time>
      </trkpt>
      <trkpt lat="45.74799" lon="6.57859">
        <ele>1152.7</ele>
        <time>2024-01-08T15:04:07Z</time>
      </trkpt>
      <trkpt lat="45.74803" lon="6.57863">
        <ele>1152.4</ele>
        <time>2024-01-08T15:04:11Z</time>
      </trkpt>
      <trkpt lat="45.74808" lon="6.57868">
        <ele>1151.9</ele>
        <time>2024-01-08T15:04:16Z</time>
      </trkpt>
      <trkpt lat="45.74812" lon="6.57871">
        <ele>1151.2</ele>
        <time>2024-01-08T15:04:21Z</time>
      </trkpt>
      <trkpt lat="45.74817" lon="6.57871">
        <ele>1150</ele>
        <time>2024-01-08T15:04:26Z</time>
      </trkpt>
      <trkpt lat="45.74822" lon="6.57872">
        <ele>1148.3</ele>
        <time>2024-01-08T15:04:31Z</time>
      </trkpt>
      <trkpt lat="45.74827" lon="6.57873">
        <ele>1147</ele>
        <time>2024-01-08T15:04:36Z</time>
      </trkpt>
      <trkpt lat="45.74833" lon="6.57873">
        <ele>1145.9</ele>
        <time>2024-01-08T15:04:41Z</time>
      </trkpt>
      <trkpt lat="45.74838" lon="6.57874">
        <ele>1144.9</ele>
        <time>2024-01-08T15:04:46Z</time>
      </trkpt>
      <trkpt lat="45.74844" lon="6.57876">
        <ele>1144</ele>
        <time>2024-01-08T15:04:51Z</time>
      </trkpt>
      <trkpt lat="45.74849" lon="6.57878">
        <ele>1143.9</ele>
        <time>2024-01-08T15:04:55Z</time>
      </trkpt>
      <trkpt lat="45.74853" lon="6.57879">
        <ele>1143.9</ele>
        <time>2024-01-08T15:04:59Z</time>
      </trkpt>
      <trkpt lat="45.74858" lon="6.57881">
        <ele>1143.7</ele>
        <time>2024-01-08T15:05:03Z</time>
      </trkpt>
      <trkpt lat="45.74864" lon="6.57882">
        <ele>1143.7</ele>
        <time>2024-01-08T15:05:07Z</time>
      </trkpt>
      <trkpt lat="45.74869" lon="6.57884">
        <ele>1143.6</ele>
        <time>2024-01-08T15:05:11Z</time>
      </trkpt>
      <trkpt lat="45.74874" lon="6.57886">
        <ele>1143.1</ele>
        <time>2024-01-08T15:05:15Z</time>
      </trkpt>
      <trkpt lat="45.74879" lon="6.57888">
        <ele>1142.6</ele>
        <time>2024-01-08T15:05:19Z</time>
      </trkpt>
      <trkpt lat="45.74883" lon="6.57891">
        <ele>1142.3</ele>
        <time>2024-01-08T15:05:23Z</time>
      </trkpt>
      <trkpt lat="45.74888" lon="6.57894">
        <ele>1141.6</ele>
        <time>2024-01-08T15:05:27Z</time>
      </trkpt>
      <trkpt lat="45.74892" lon="6.57898">
        <ele>1141.2</ele>
        <time>2024-01-08T15:05:31Z</time>
      </trkpt>
      <trkpt lat="45.74895" lon="6.57903">
        <ele>1141</ele>
        <time>2024-01-08T15:05:35Z</time>
      </trkpt>
      <trkpt lat="45.74898" lon="6.57909">
        <ele>1141.5</ele>
        <time>2024-01-08T15:05:39Z</time>
      </trkpt>
      <trkpt lat="45.749" lon="6.57916">
        <ele>1142.4</ele>
        <time>2024-01-08T15:05:43Z</time>
      </trkpt>
      <trkpt lat="45.74899" lon="6.57923">
        <ele>1144</ele>
        <time>2024-01-08T15:05:47Z</time>
      </trkpt>
      <trkpt lat="45.74896" lon="6.57929">
        <ele>1145.4</ele>
        <time>2024-01-08T15:05:51Z</time>
      </trkpt>
      <trkpt lat="45.74891" lon="6.57932">
        <ele>1146.1</ele>
        <time>2024-01-08T15:05:56Z</time>
      </trkpt>
      <trkpt lat="45.74886" lon="6.57933">
        <ele>1146.4</ele>
        <time>2024-01-08T15:06:01Z</time>
      </trkpt>
      <trkpt lat="45.74881" lon="6.57934">
        <ele>1146.9</ele>
        <time>2024-01-08T15:06:06Z</time>
      </trkpt>
      <trkpt lat="45.74876" lon="6.57935">
        <ele>1147.3</ele>
        <time>2024-01-08T15:06:10Z</time>
      </trkpt>
      <trkpt lat="45.74872" lon="6.57937">
        <ele>1148.4</ele>
        <time>2024-01-08T15:06:14Z</time>
      </trkpt>
      <trkpt lat="45.74868" lon="6.5794">
        <ele>1149.5</ele>
        <time>2024-01-08T15:06:18Z</time>
      </trkpt>
      <trkpt lat="45.74864" lon="6.57945">
        <ele>1150.1</ele>
        <time>2024-01-08T15:06:22Z</time>
      </trkpt>
      <trkpt lat="45.74861" lon="6.5795">
        <ele>1150.5</ele>
        <time>2024-01-08T15:06:26Z</time>
      </trkpt>
      <trkpt lat="45.74858" lon="6.57956">
        <ele>1150.4</ele>
        <time>2024-01-08T15:06:30Z</time>
      </trkpt>
      <trkpt lat="45.74856" lon="6.57963">
        <ele>1150.6</ele>
        <time>2024-01-08T15:06:34Z</time>
      </trkpt>
      <trkpt lat="45.74855" lon="6.5797">
        <ele>1150.8</ele>
        <time>2024-01-08T15:06:38Z</time>
      </trkpt>
      <trkpt lat="45.74854" lon="6.57976">
        <ele>1150.8</ele>
        <time>2024-01-08T15:06:42Z</time>
      </trkpt>
      <trkpt lat="45.74854" lon="6.57983">
        <ele>1150.4</ele>
        <time>2024-01-08T15:06:46Z</time>
      </trkpt>
      <trkpt lat="45.74854" lon="6.5799">
        <ele>1149.9</ele>
        <time>2024-01-08T15:06:50Z</time>
      </trkpt>
      <trkpt lat="45.74854" lon="6.57997">
        <ele>1149.2</ele>
        <time>2024-01-08T15:06:54Z</time>
      </trkpt>
      <trkpt lat="45.74855" lon="6.58004">
        <ele>1148.7</ele>
        <time>2024-01-08T15:06:58Z</time>
      </trkpt>
      <trkpt lat="45.74855" lon="6.58011">
        <ele>1148.5</ele>
        <time>2024-01-08T15:07:02Z</time>
      </trkpt>
      <trkpt lat="45.74856" lon="6.58018">
        <ele>1148.3</ele>
        <time>2024-01-08T15:07:06Z</time>
      </trkpt>
      <trkpt lat="45.74857" lon="6.58025">
        <ele>1148.5</ele>
        <time>2024-01-08T15:07:10Z</time>
      </trkpt>
      <trkpt lat="45.74859" lon="6.58033">
        <ele>1148.6</ele>
        <time>2024-01-08T15:07:14Z</time>
      </trkpt>
      <trkpt lat="45.74861" lon="6.5804">
        <ele>1148.5</ele>
        <time>2024-01-08T15:07:18Z</time>
      </trkpt>
      <trkpt lat="45.74863" lon="6.58046">
        <ele>1148.4</ele>
        <time>2024-01-08T15:07:21Z</time>
      </trkpt>
      <trkpt lat="45.74865" lon="6.58053">
        <ele>1148</ele>
        <time>2024-01-08T15:07:25Z</time>
      </trkpt>
      <trkpt lat="45.74867" lon="6.58059">
        <ele>1147.6</ele>
        <time>2024-01-08T15:07:29Z</time>
      </trkpt>
      <trkpt lat="45.7487" lon="6.58066">
        <ele>1147.4</ele>
        <time>2024-01-08T15:07:33Z</time>
      </trkpt>
      <trkpt lat="45.74872" lon="6.58072">
        <ele>1147.1</ele>
        <time>2024-01-08T15:07:37Z</time>
      </trkpt>
      <trkpt lat="45.74873" lon="6.58078">
        <ele>1146.7</ele>
        <time>2024-01-08T15:07:41Z</time>
      </trkpt>
      <trkpt lat="45.74874" lon="6.58085">
        <ele>1146.6</ele>
        <time>2024-01-08T15:07:45Z</time>
      </trkpt>
      <trkpt lat="45.74875" lon="6.58091">
        <ele>1146.3</ele>
        <time>2024-01-08T15:07:49Z</time>
      </trkpt>
      <trkpt lat="45.74877" lon="6.58098">
        <ele>1145.8</ele>
        <time>2024-01-08T15:07:53Z</time>
      </trkpt>
      <trkpt lat="45.74878" lon="6.58105">
        <ele>1145.1</ele>
        <time>2024-01-08T15:07:57Z</time>
      </trkpt>
      <trkpt lat="45.74879" lon="6.58113">
        <ele>1144.3</ele>
        <time>2024-01-08T15:08:01Z</time>
      </trkpt>
      <trkpt lat="45.74879" lon="6.5812">
        <ele>1143.5</ele>
        <time>2024-01-08T15:08:05Z</time>
      </trkpt>
      <trkpt lat="45.74881" lon="6.58128">
        <ele>1142.8</ele>
        <time>2024-01-08T15:08:09Z</time>
      </trkpt>
      <trkpt lat="45.74883" lon="6.58135">
        <ele>1142.1</ele>
        <time>2024-01-08T15:08:13Z</time>
      </trkpt>
      <trkpt lat="45.74882" lon="6.58141">
        <ele>1141.9</ele>
        <time>2024-01-08T15:08:17Z</time>
      </trkpt>
      <trkpt lat="45.74882" lon="6.58148">
        <ele>1141.5</ele>
        <time>2024-01-08T15:08:21Z</time>
      </trkpt>
      <trkpt lat="45.74882" lon="6.58155">
        <ele>1141.2</ele>
        <time>2024-01-08T15:08:25Z</time>
      </trkpt>
      <trkpt lat="45.74883" lon="6.58163">
        <ele>1140.6</ele>
        <time>2024-01-08T15:08:30Z</time>
      </trkpt>
      <trkpt lat="45.74883" lon="6.58169">
        <ele>1140.7</ele>
        <time>2024-01-08T15:08:34Z</time>
      </trkpt>
      <trkpt lat="45.74884" lon="6.58176">
        <ele>1140.8</ele>
        <time>2024-01-08T15:08:38Z</time>
      </trkpt>
      <trkpt lat="45.74885" lon="6.58183">
        <ele>1140.7</ele>
        <time>2024-01-08T15:08:42Z</time>
      </trkpt>
      <trkpt lat="45.74885" lon="6.5819">
        <ele>1140.3</ele>
        <time>2024-01-08T15:08:46Z</time>
      </trkpt>
      <trkpt lat="45.74887" lon="6.58197">
        <ele>1140.2</ele>
        <time>2024-01-08T15:08:50Z</time>
      </trkpt>
      <trkpt lat="45.74888" lon="6.58203">
        <ele>1139.9</ele>
        <time>2024-01-08T15:08:54Z</time>
      </trkpt>
      <trkpt lat="45.74888" lon="6.5821">
        <ele>1139.6</ele>
        <time>2024-01-08T15:08:58Z</time>
      </trkpt>
      <trkpt lat="45.74889" lon="6.58217">
        <ele>1139.5</ele>
        <time>2024-01-08T15:09:02Z</time>
      </trkpt>
      <trkpt lat="45.7489" lon="6.58223">
        <ele>1139.6</ele>
        <time>2024-01-08T15:09:06Z</time>
      </trkpt>
      <trkpt lat="45.74893" lon="6.58229">
        <ele>1139.3</ele>
        <time>2024-01-08T15:09:11Z</time>
      </trkpt>
      <trkpt lat="45.74896" lon="6.58235">
        <ele>1138.8</ele>
        <time>2024-01-08T15:09:16Z</time>
      </trkpt>
      <trkpt lat="45.74899" lon="6.58242">
        <ele>1138.2</ele>
        <time>2024-01-08T15:09:21Z</time>
      </trkpt>
      <trkpt lat="45.74901" lon="6.58248">
        <ele>1137.7</ele>
        <time>2024-01-08T15:09:25Z</time>
      </trkpt>
      <trkpt lat="45.74903" lon="6.58254">
        <ele>1137.3</ele>
        <time>2024-01-08T15:09:29Z</time>
      </trkpt>
      <trkpt lat="45.74904" lon="6.5826">
        <ele>1136.7</ele>
        <time>2024-01-08T15:09:33Z</time>
      </trkpt>
      <trkpt lat="45.74905" lon="6.58267">
        <ele>1135.9</ele>
        <time>2024-01-08T15:09:37Z</time>
      </trkpt>
      <trkpt lat="45.74907" lon="6.58273">
        <ele>1135.3</ele>
        <time>2024-01-08T15:09:41Z</time>
      </trkpt>
      <trkpt lat="45.74908" lon="6.58279">
        <ele>1134.9</ele>
        <time>2024-01-08T15:09:45Z</time>
      </trkpt>
      <trkpt lat="45.7491" lon="6.58287">
        <ele>1134.6</ele>
        <time>2024-01-08T15:09:50Z</time>
      </trkpt>
      <trkpt lat="45.74913" lon="6.58294">
        <ele>1134.3</ele>
        <time>2024-01-08T15:09:55Z</time>
      </trkpt>
      <trkpt lat="45.74915" lon="6.583">
        <ele>1134.1</ele>
        <time>2024-01-08T15:10:00Z</time>
      </trkpt>
      <trkpt lat="45.74916" lon="6.58307">
        <ele>1135.1</ele>
        <time>2024-01-08T15:10:05Z</time>
      </trkpt>
      <trkpt lat="45.74918" lon="6.58313">
        <ele>1136.8</ele>
        <time>2024-01-08T15:10:10Z</time>
      </trkpt>
      <trkpt lat="45.74922" lon="6.58308">
        <ele>1132.9</ele>
        <time>2024-01-08T15:10:54Z</time>
      </trkpt>
    </trkseg>
  </trk>
</gpx>